<?xml version="1.0" encoding="UTF-8" standalone="no" ?>
<gpx xmlns="http://www.topografix.com/GPX/1/1" xmlns:xsi="http://www.w3.org/2001/XMLSchema-instance" xsi:schemaLocation="http://www.topografix.com/GPX/1/1 http://www.topografix.com/GPX/1/1/gpx.xsd" version="1.1" creator="VisuGPX - https://www.visugpx.com">
  <metadata>
    <name>Boucle Morgiou</name>
    <desc><![CDATA[Passage équipé en désescalade délicat à la descente sur Morgiou (vertigineux s'abstenir) et bonne grimpette jusqu'à la crête de Morgiou.]]></desc>
  </metadata>
  <trk>
    <name><![CDATA[31/12/2021 09:20:29  Boucle Morgiou]]></name>
    <trkseg>
      <trkpt lat="43.23049" lon="5.43638">
        <ele>158.60000610352</ele>
        <time>2021-12-31T08:20:29Z</time>
      </trkpt>
      <trkpt lat="43.23049" lon="5.43638">
        <ele>158.60000610352</ele>
        <time>2021-12-31T08:20:30Z</time>
      </trkpt>
      <trkpt lat="43.2305" lon="5.43637">
        <ele>158.60000610352</ele>
        <time>2021-12-31T08:20:33Z</time>
      </trkpt>
      <trkpt lat="43.23055" lon="5.43633">
        <ele>158.19999694824</ele>
        <time>2021-12-31T08:20:39Z</time>
      </trkpt>
      <trkpt lat="43.2306" lon="5.43632">
        <ele>158.39999389648</ele>
        <time>2021-12-31T08:21:09Z</time>
      </trkpt>
      <trkpt lat="43.2305" lon="5.43646">
        <ele>158.60000610352</ele>
        <time>2021-12-31T08:21:26Z</time>
      </trkpt>
      <trkpt lat="43.23047" lon="5.43659">
        <ele>158.80000305176</ele>
        <time>2021-12-31T08:21:32Z</time>
      </trkpt>
      <trkpt lat="43.23032" lon="5.43674">
        <ele>159.80000305176</ele>
        <time>2021-12-31T08:21:53Z</time>
      </trkpt>
      <trkpt lat="43.23016" lon="5.43679">
        <ele>161</ele>
        <time>2021-12-31T08:22:05Z</time>
      </trkpt>
      <trkpt lat="43.22985" lon="5.43693">
        <ele>163.19999694824</ele>
        <time>2021-12-31T08:22:33Z</time>
      </trkpt>
      <trkpt lat="43.22965" lon="5.43706">
        <ele>164.60000610352</ele>
        <time>2021-12-31T08:22:56Z</time>
      </trkpt>
      <trkpt lat="43.22942" lon="5.43702">
        <ele>165.60000610352</ele>
        <time>2021-12-31T08:23:22Z</time>
      </trkpt>
      <trkpt lat="43.22912" lon="5.43709">
        <ele>167.39999389648</ele>
        <time>2021-12-31T08:23:45Z</time>
      </trkpt>
      <trkpt lat="43.22876" lon="5.43711">
        <ele>169.60000610352</ele>
        <time>2021-12-31T08:24:13Z</time>
      </trkpt>
      <trkpt lat="43.22839" lon="5.43718">
        <ele>172</ele>
        <time>2021-12-31T08:24:44Z</time>
      </trkpt>
      <trkpt lat="43.22802" lon="5.4372">
        <ele>174.19999694824</ele>
        <time>2021-12-31T08:25:14Z</time>
      </trkpt>
      <trkpt lat="43.22776" lon="5.43717">
        <ele>175.80000305176</ele>
        <time>2021-12-31T08:25:35Z</time>
      </trkpt>
      <trkpt lat="43.22761" lon="5.43717">
        <ele>177</ele>
        <time>2021-12-31T08:25:52Z</time>
      </trkpt>
      <trkpt lat="43.22738" lon="5.43724">
        <ele>178.19999694824</ele>
        <time>2021-12-31T08:26:10Z</time>
      </trkpt>
      <trkpt lat="43.22715" lon="5.43732">
        <ele>179.60000610352</ele>
        <time>2021-12-31T08:26:30Z</time>
      </trkpt>
      <trkpt lat="43.22697" lon="5.43742">
        <ele>180.60000610352</ele>
        <time>2021-12-31T08:26:47Z</time>
      </trkpt>
      <trkpt lat="43.2267" lon="5.43765">
        <ele>182.19999694824</ele>
        <time>2021-12-31T08:27:13Z</time>
      </trkpt>
      <trkpt lat="43.2264" lon="5.43786">
        <ele>183.80000305176</ele>
        <time>2021-12-31T08:27:42Z</time>
      </trkpt>
      <trkpt lat="43.22602" lon="5.438">
        <ele>184</ele>
        <time>2021-12-31T08:28:13Z</time>
      </trkpt>
      <trkpt lat="43.22585" lon="5.43803">
        <ele>183.80000305176</ele>
        <time>2021-12-31T08:28:26Z</time>
      </trkpt>
      <trkpt lat="43.2256" lon="5.43801">
        <ele>183.19999694824</ele>
        <time>2021-12-31T08:28:44Z</time>
      </trkpt>
      <trkpt lat="43.22558" lon="5.438">
        <ele>183.19999694824</ele>
        <time>2021-12-31T08:28:46Z</time>
      </trkpt>
      <trkpt lat="43.22551" lon="5.43802">
        <ele>183</ele>
        <time>2021-12-31T08:28:52Z</time>
      </trkpt>
      <trkpt lat="43.22546" lon="5.43804">
        <ele>182.80000305176</ele>
        <time>2021-12-31T08:28:56Z</time>
      </trkpt>
      <trkpt lat="43.22541" lon="5.43803">
        <ele>182.80000305176</ele>
        <time>2021-12-31T08:29:00Z</time>
      </trkpt>
      <trkpt lat="43.22531" lon="5.43801">
        <ele>182.60000610352</ele>
        <time>2021-12-31T08:29:08Z</time>
      </trkpt>
      <trkpt lat="43.22522" lon="5.43801">
        <ele>182.60000610352</ele>
        <time>2021-12-31T08:29:14Z</time>
      </trkpt>
      <trkpt lat="43.22503" lon="5.43804">
        <ele>182.39999389648</ele>
        <time>2021-12-31T08:29:28Z</time>
      </trkpt>
      <trkpt lat="43.22491" lon="5.438">
        <ele>182.39999389648</ele>
        <time>2021-12-31T08:29:45Z</time>
      </trkpt>
      <trkpt lat="43.22479" lon="5.43801">
        <ele>182.19999694824</ele>
        <time>2021-12-31T08:30:29Z</time>
      </trkpt>
      <trkpt lat="43.22472" lon="5.438">
        <ele>182.19999694824</ele>
        <time>2021-12-31T08:30:38Z</time>
      </trkpt>
      <trkpt lat="43.22448" lon="5.4381">
        <ele>181.19999694824</ele>
        <time>2021-12-31T08:31:03Z</time>
      </trkpt>
      <trkpt lat="43.22419" lon="5.43845">
        <ele>181.19999694824</ele>
        <time>2021-12-31T08:31:27Z</time>
      </trkpt>
      <trkpt lat="43.22386" lon="5.43862">
        <ele>181.80000305176</ele>
        <time>2021-12-31T08:31:54Z</time>
      </trkpt>
      <trkpt lat="43.22362" lon="5.43882">
        <ele>182.39999389648</ele>
        <time>2021-12-31T08:32:16Z</time>
      </trkpt>
      <trkpt lat="43.22343" lon="5.43905">
        <ele>183.39999389648</ele>
        <time>2021-12-31T08:32:36Z</time>
      </trkpt>
      <trkpt lat="43.22325" lon="5.4393">
        <ele>184.19999694824</ele>
        <time>2021-12-31T08:32:59Z</time>
      </trkpt>
      <trkpt lat="43.22297" lon="5.43961">
        <ele>186</ele>
        <time>2021-12-31T08:33:27Z</time>
      </trkpt>
      <trkpt lat="43.2227" lon="5.43981">
        <ele>187.19999694824</ele>
        <time>2021-12-31T08:33:52Z</time>
      </trkpt>
      <trkpt lat="43.22241" lon="5.4399">
        <ele>188.39999389648</ele>
        <time>2021-12-31T08:34:17Z</time>
      </trkpt>
      <trkpt lat="43.22225" lon="5.43998">
        <ele>188.60000610352</ele>
        <time>2021-12-31T08:34:28Z</time>
      </trkpt>
      <trkpt lat="43.22194" lon="5.44002">
        <ele>190.19999694824</ele>
        <time>2021-12-31T08:34:53Z</time>
      </trkpt>
      <trkpt lat="43.22168" lon="5.44017">
        <ele>191.19999694824</ele>
        <time>2021-12-31T08:35:16Z</time>
      </trkpt>
      <trkpt lat="43.22156" lon="5.44025">
        <ele>192.19999694824</ele>
        <time>2021-12-31T08:35:29Z</time>
      </trkpt>
      <trkpt lat="43.22141" lon="5.4404">
        <ele>193.19999694824</ele>
        <time>2021-12-31T08:35:44Z</time>
      </trkpt>
      <trkpt lat="43.22133" lon="5.44047">
        <ele>193.60000610352</ele>
        <time>2021-12-31T08:35:56Z</time>
      </trkpt>
      <trkpt lat="43.22112" lon="5.44065">
        <ele>194.80000305176</ele>
        <time>2021-12-31T08:36:17Z</time>
      </trkpt>
      <trkpt lat="43.22094" lon="5.44089">
        <ele>196</ele>
        <time>2021-12-31T08:36:35Z</time>
      </trkpt>
      <trkpt lat="43.22076" lon="5.44108">
        <ele>197.39999389648</ele>
        <time>2021-12-31T08:36:52Z</time>
      </trkpt>
      <trkpt lat="43.2206" lon="5.44102">
        <ele>198.39999389648</ele>
        <time>2021-12-31T08:37:07Z</time>
      </trkpt>
      <trkpt lat="43.22047" lon="5.44102">
        <ele>199</ele>
        <time>2021-12-31T08:37:22Z</time>
      </trkpt>
      <trkpt lat="43.22052" lon="5.44095">
        <ele>199.60000610352</ele>
        <time>2021-12-31T08:37:42Z</time>
      </trkpt>
      <trkpt lat="43.22053" lon="5.44088">
        <ele>199.19999694824</ele>
        <time>2021-12-31T08:38:05Z</time>
      </trkpt>
      <trkpt lat="43.22048" lon="5.44096">
        <ele>199.39999389648</ele>
        <time>2021-12-31T08:38:25Z</time>
      </trkpt>
      <trkpt lat="43.22033" lon="5.44107">
        <ele>200</ele>
        <time>2021-12-31T08:38:46Z</time>
      </trkpt>
      <trkpt lat="43.22022" lon="5.44104">
        <ele>200.19999694824</ele>
        <time>2021-12-31T08:39:02Z</time>
      </trkpt>
      <trkpt lat="43.22021" lon="5.44101">
        <ele>199.80000305176</ele>
        <time>2021-12-31T08:39:16Z</time>
      </trkpt>
      <trkpt lat="43.22011" lon="5.44095">
        <ele>198.60000610352</ele>
        <time>2021-12-31T08:39:35Z</time>
      </trkpt>
      <trkpt lat="43.22006" lon="5.44093">
        <ele>198.39999389648</ele>
        <time>2021-12-31T08:40:01Z</time>
      </trkpt>
      <trkpt lat="43.22007" lon="5.44087">
        <ele>198</ele>
        <time>2021-12-31T08:40:25Z</time>
      </trkpt>
      <trkpt lat="43.22007" lon="5.44085">
        <ele>198</ele>
        <time>2021-12-31T08:40:33Z</time>
      </trkpt>
      <trkpt lat="43.2201" lon="5.44072">
        <ele>198</ele>
        <time>2021-12-31T08:40:49Z</time>
      </trkpt>
      <trkpt lat="43.2201" lon="5.44075">
        <ele>198.19999694824</ele>
        <time>2021-12-31T08:41:00Z</time>
      </trkpt>
      <trkpt lat="43.22007" lon="5.44096">
        <ele>197.80000305176</ele>
        <time>2021-12-31T08:41:15Z</time>
      </trkpt>
      <trkpt lat="43.21999" lon="5.44108">
        <ele>197.80000305176</ele>
        <time>2021-12-31T08:41:33Z</time>
      </trkpt>
      <trkpt lat="43.21993" lon="5.44117">
        <ele>196.80000305176</ele>
        <time>2021-12-31T08:41:52Z</time>
      </trkpt>
      <trkpt lat="43.21981" lon="5.44134">
        <ele>194.39999389648</ele>
        <time>2021-12-31T08:42:11Z</time>
      </trkpt>
      <trkpt lat="43.2197" lon="5.44145">
        <ele>192.39999389648</ele>
        <time>2021-12-31T08:42:29Z</time>
      </trkpt>
      <trkpt lat="43.21958" lon="5.4416">
        <ele>190.60000610352</ele>
        <time>2021-12-31T08:42:45Z</time>
      </trkpt>
      <trkpt lat="43.21936" lon="5.44178">
        <ele>188.60000610352</ele>
        <time>2021-12-31T08:43:06Z</time>
      </trkpt>
      <trkpt lat="43.21917" lon="5.44184">
        <ele>187.80000305176</ele>
        <time>2021-12-31T08:43:22Z</time>
      </trkpt>
      <trkpt lat="43.21906" lon="5.44185">
        <ele>186.80000305176</ele>
        <time>2021-12-31T08:43:37Z</time>
      </trkpt>
      <trkpt lat="43.21885" lon="5.44187">
        <ele>183.60000610352</ele>
        <time>2021-12-31T08:43:56Z</time>
      </trkpt>
      <trkpt lat="43.2188" lon="5.44179">
        <ele>182.39999389648</ele>
        <time>2021-12-31T08:44:05Z</time>
      </trkpt>
      <trkpt lat="43.21877" lon="5.44156">
        <ele>180.19999694824</ele>
        <time>2021-12-31T08:44:21Z</time>
      </trkpt>
      <trkpt lat="43.21874" lon="5.44142">
        <ele>178</ele>
        <time>2021-12-31T08:44:38Z</time>
      </trkpt>
      <trkpt lat="43.21875" lon="5.44139">
        <ele>177.39999389648</ele>
        <time>2021-12-31T08:44:42Z</time>
      </trkpt>
      <trkpt lat="43.21872" lon="5.44134">
        <ele>176.60000610352</ele>
        <time>2021-12-31T08:44:48Z</time>
      </trkpt>
      <trkpt lat="43.21869" lon="5.44131">
        <ele>176</ele>
        <time>2021-12-31T08:44:52Z</time>
      </trkpt>
      <trkpt lat="43.21859" lon="5.44125">
        <ele>173.39999389648</ele>
        <time>2021-12-31T08:45:13Z</time>
      </trkpt>
      <trkpt lat="43.21856" lon="5.44129">
        <ele>173</ele>
        <time>2021-12-31T08:45:34Z</time>
      </trkpt>
      <trkpt lat="43.21855" lon="5.44127">
        <ele>173.19999694824</ele>
        <time>2021-12-31T08:46:01Z</time>
      </trkpt>
      <trkpt lat="43.2185" lon="5.44128">
        <ele>173.19999694824</ele>
        <time>2021-12-31T08:46:33Z</time>
      </trkpt>
      <trkpt lat="43.21845" lon="5.4414">
        <ele>171.19999694824</ele>
        <time>2021-12-31T08:46:52Z</time>
      </trkpt>
      <trkpt lat="43.21829" lon="5.44151">
        <ele>168.19999694824</ele>
        <time>2021-12-31T08:47:10Z</time>
      </trkpt>
      <trkpt lat="43.2182" lon="5.44151">
        <ele>167</ele>
        <time>2021-12-31T08:47:22Z</time>
      </trkpt>
      <trkpt lat="43.21808" lon="5.44148">
        <ele>165.39999389648</ele>
        <time>2021-12-31T08:47:35Z</time>
      </trkpt>
      <trkpt lat="43.21801" lon="5.44142">
        <ele>165.19999694824</ele>
        <time>2021-12-31T08:47:42Z</time>
      </trkpt>
      <trkpt lat="43.21794" lon="5.44133">
        <ele>165.19999694824</ele>
        <time>2021-12-31T08:47:52Z</time>
      </trkpt>
      <trkpt lat="43.21789" lon="5.4412">
        <ele>165</ele>
        <time>2021-12-31T08:48:05Z</time>
      </trkpt>
      <trkpt lat="43.21781" lon="5.4411">
        <ele>165.39999389648</ele>
        <time>2021-12-31T08:48:26Z</time>
      </trkpt>
      <trkpt lat="43.21776" lon="5.44102">
        <ele>165.60000610352</ele>
        <time>2021-12-31T08:48:42Z</time>
      </trkpt>
      <trkpt lat="43.21763" lon="5.44098">
        <ele>165.60000610352</ele>
        <time>2021-12-31T08:48:55Z</time>
      </trkpt>
      <trkpt lat="43.21757" lon="5.44096">
        <ele>165.39999389648</ele>
        <time>2021-12-31T08:48:59Z</time>
      </trkpt>
      <trkpt lat="43.21742" lon="5.4409">
        <ele>164</ele>
        <time>2021-12-31T08:49:13Z</time>
      </trkpt>
      <trkpt lat="43.21728" lon="5.44099">
        <ele>162.80000305176</ele>
        <time>2021-12-31T08:49:31Z</time>
      </trkpt>
      <trkpt lat="43.21718" lon="5.44109">
        <ele>161.19999694824</ele>
        <time>2021-12-31T08:49:46Z</time>
      </trkpt>
      <trkpt lat="43.21707" lon="5.44108">
        <ele>160.80000305176</ele>
        <time>2021-12-31T08:49:56Z</time>
      </trkpt>
      <trkpt lat="43.21694" lon="5.44095">
        <ele>160</ele>
        <time>2021-12-31T08:50:10Z</time>
      </trkpt>
      <trkpt lat="43.21681" lon="5.44082">
        <ele>161.19999694824</ele>
        <time>2021-12-31T08:50:30Z</time>
      </trkpt>
      <trkpt lat="43.21673" lon="5.44068">
        <ele>163</ele>
        <time>2021-12-31T08:50:53Z</time>
      </trkpt>
      <trkpt lat="43.21667" lon="5.44063">
        <ele>163.80000305176</ele>
        <time>2021-12-31T08:51:25Z</time>
      </trkpt>
      <trkpt lat="43.2166" lon="5.44055">
        <ele>165</ele>
        <time>2021-12-31T08:51:45Z</time>
      </trkpt>
      <trkpt lat="43.21644" lon="5.44055">
        <ele>164.80000305176</ele>
        <time>2021-12-31T08:52:08Z</time>
      </trkpt>
      <trkpt lat="43.21631" lon="5.44064">
        <ele>162.39999389648</ele>
        <time>2021-12-31T08:52:30Z</time>
      </trkpt>
      <trkpt lat="43.21623" lon="5.44069">
        <ele>160</ele>
        <time>2021-12-31T08:52:46Z</time>
      </trkpt>
      <trkpt lat="43.21614" lon="5.44084">
        <ele>157</ele>
        <time>2021-12-31T08:53:05Z</time>
      </trkpt>
      <trkpt lat="43.2161" lon="5.44096">
        <ele>153.80000305176</ele>
        <time>2021-12-31T08:53:23Z</time>
      </trkpt>
      <trkpt lat="43.21611" lon="5.44096">
        <ele>154</ele>
        <time>2021-12-31T08:54:07Z</time>
      </trkpt>
      <trkpt lat="43.21614" lon="5.441">
        <ele>154</ele>
        <time>2021-12-31T08:54:51Z</time>
      </trkpt>
      <trkpt lat="43.21607" lon="5.44124">
        <ele>151.80000305176</ele>
        <time>2021-12-31T08:55:15Z</time>
      </trkpt>
      <trkpt lat="43.21605" lon="5.44144">
        <ele>149.80000305176</ele>
        <time>2021-12-31T08:55:34Z</time>
      </trkpt>
      <trkpt lat="43.21587" lon="5.4417">
        <ele>147</ele>
        <time>2021-12-31T08:55:57Z</time>
      </trkpt>
      <trkpt lat="43.21586" lon="5.44171">
        <ele>147</ele>
        <time>2021-12-31T08:55:58Z</time>
      </trkpt>
      <trkpt lat="43.2157" lon="5.44186">
        <ele>144.39999389648</ele>
        <time>2021-12-31T08:56:18Z</time>
      </trkpt>
      <trkpt lat="43.2156" lon="5.44197">
        <ele>142.39999389648</ele>
        <time>2021-12-31T08:56:40Z</time>
      </trkpt>
      <trkpt lat="43.21553" lon="5.44206">
        <ele>140</ele>
        <time>2021-12-31T08:56:59Z</time>
      </trkpt>
      <trkpt lat="43.21545" lon="5.44214">
        <ele>137.60000610352</ele>
        <time>2021-12-31T08:57:18Z</time>
      </trkpt>
      <trkpt lat="43.21539" lon="5.44209">
        <ele>134.80000305176</ele>
        <time>2021-12-31T08:57:46Z</time>
      </trkpt>
      <trkpt lat="43.21529" lon="5.44211">
        <ele>131.80000305176</ele>
        <time>2021-12-31T08:58:06Z</time>
      </trkpt>
      <trkpt lat="43.21521" lon="5.44218">
        <ele>128.80000305176</ele>
        <time>2021-12-31T08:58:26Z</time>
      </trkpt>
      <trkpt lat="43.21517" lon="5.44222">
        <ele>127</ele>
        <time>2021-12-31T08:58:40Z</time>
      </trkpt>
      <trkpt lat="43.21515" lon="5.44223">
        <ele>126.40000152588</ele>
        <time>2021-12-31T08:59:31Z</time>
      </trkpt>
      <trkpt lat="43.21516" lon="5.44231">
        <ele>126.19999694824</ele>
        <time>2021-12-31T09:00:01Z</time>
      </trkpt>
      <trkpt lat="43.21522" lon="5.44249">
        <ele>124</ele>
        <time>2021-12-31T09:00:25Z</time>
      </trkpt>
      <trkpt lat="43.21533" lon="5.4426">
        <ele>121.19999694824</ele>
        <time>2021-12-31T09:00:44Z</time>
      </trkpt>
      <trkpt lat="43.21539" lon="5.44276">
        <ele>118.19999694824</ele>
        <time>2021-12-31T09:01:05Z</time>
      </trkpt>
      <trkpt lat="43.21537" lon="5.44285">
        <ele>116</ele>
        <time>2021-12-31T09:01:21Z</time>
      </trkpt>
      <trkpt lat="43.21532" lon="5.44287">
        <ele>112.80000305176</ele>
        <time>2021-12-31T09:01:43Z</time>
      </trkpt>
      <trkpt lat="43.21523" lon="5.44291">
        <ele>109.80000305176</ele>
        <time>2021-12-31T09:02:05Z</time>
      </trkpt>
      <trkpt lat="43.21517" lon="5.44301">
        <ele>106.59999847412</ele>
        <time>2021-12-31T09:02:21Z</time>
      </trkpt>
      <trkpt lat="43.21511" lon="5.44316">
        <ele>103.40000152588</ele>
        <time>2021-12-31T09:02:35Z</time>
      </trkpt>
      <trkpt lat="43.21502" lon="5.4433">
        <ele>100.40000152588</ele>
        <time>2021-12-31T09:02:51Z</time>
      </trkpt>
      <trkpt lat="43.21501" lon="5.44331">
        <ele>100.40000152588</ele>
        <time>2021-12-31T09:02:52Z</time>
      </trkpt>
      <trkpt lat="43.21485" lon="5.44344">
        <ele>98</ele>
        <time>2021-12-31T09:03:10Z</time>
      </trkpt>
      <trkpt lat="43.2148" lon="5.4436">
        <ele>99.800003051758</ele>
        <time>2021-12-31T09:03:30Z</time>
      </trkpt>
      <trkpt lat="43.21469" lon="5.44379">
        <ele>102.80000305176</ele>
        <time>2021-12-31T09:03:50Z</time>
      </trkpt>
      <trkpt lat="43.2146" lon="5.44377">
        <ele>105.40000152588</ele>
        <time>2021-12-31T09:04:11Z</time>
      </trkpt>
      <trkpt lat="43.21457" lon="5.44376">
        <ele>105.19999694824</ele>
        <time>2021-12-31T09:04:36Z</time>
      </trkpt>
      <trkpt lat="43.21457" lon="5.44377">
        <ele>105</ele>
        <time>2021-12-31T09:04:55Z</time>
      </trkpt>
      <trkpt lat="43.21457" lon="5.44376">
        <ele>105.59999847412</ele>
        <time>2021-12-31T09:05:12Z</time>
      </trkpt>
      <trkpt lat="43.21454" lon="5.44382">
        <ele>105.80000305176</ele>
        <time>2021-12-31T09:05:40Z</time>
      </trkpt>
      <trkpt lat="43.21451" lon="5.44386">
        <ele>105.40000152588</ele>
        <time>2021-12-31T09:06:10Z</time>
      </trkpt>
      <trkpt lat="43.21447" lon="5.44385">
        <ele>103</ele>
        <time>2021-12-31T09:06:35Z</time>
      </trkpt>
      <trkpt lat="43.21449" lon="5.44383">
        <ele>102.19999694824</ele>
        <time>2021-12-31T09:07:15Z</time>
      </trkpt>
      <trkpt lat="43.21446" lon="5.44385">
        <ele>102.19999694824</ele>
        <time>2021-12-31T09:07:47Z</time>
      </trkpt>
      <trkpt lat="43.21449" lon="5.4439">
        <ele>102.19999694824</ele>
        <time>2021-12-31T09:08:19Z</time>
      </trkpt>
      <trkpt lat="43.21444" lon="5.44399">
        <ele>100.40000152588</ele>
        <time>2021-12-31T09:08:45Z</time>
      </trkpt>
      <trkpt lat="43.21443" lon="5.444">
        <ele>98.800003051758</ele>
        <time>2021-12-31T09:09:07Z</time>
      </trkpt>
      <trkpt lat="43.21443" lon="5.44408">
        <ele>96.599998474121</ele>
        <time>2021-12-31T09:09:35Z</time>
      </trkpt>
      <trkpt lat="43.21446" lon="5.44413">
        <ele>95.599998474121</ele>
        <time>2021-12-31T09:10:07Z</time>
      </trkpt>
      <trkpt lat="43.21435" lon="5.44426">
        <ele>92.800003051758</ele>
        <time>2021-12-31T09:10:27Z</time>
      </trkpt>
      <trkpt lat="43.21423" lon="5.4444">
        <ele>89.599998474121</ele>
        <time>2021-12-31T09:10:45Z</time>
      </trkpt>
      <trkpt lat="43.21407" lon="5.44452">
        <ele>88.400001525879</ele>
        <time>2021-12-31T09:11:05Z</time>
      </trkpt>
      <trkpt lat="43.21403" lon="5.44462">
        <ele>89.599998474121</ele>
        <time>2021-12-31T09:11:24Z</time>
      </trkpt>
      <trkpt lat="43.21399" lon="5.44461">
        <ele>88.400001525879</ele>
        <time>2021-12-31T09:11:52Z</time>
      </trkpt>
      <trkpt lat="43.21396" lon="5.44468">
        <ele>86.400001525879</ele>
        <time>2021-12-31T09:12:05Z</time>
      </trkpt>
      <trkpt lat="43.21386" lon="5.44476">
        <ele>83</ele>
        <time>2021-12-31T09:12:26Z</time>
      </trkpt>
      <trkpt lat="43.21372" lon="5.44472">
        <ele>80</ele>
        <time>2021-12-31T09:12:44Z</time>
      </trkpt>
      <trkpt lat="43.21361" lon="5.44471">
        <ele>78.599998474121</ele>
        <time>2021-12-31T09:12:54Z</time>
      </trkpt>
      <trkpt lat="43.21352" lon="5.44471">
        <ele>79.400001525879</ele>
        <time>2021-12-31T09:13:14Z</time>
      </trkpt>
      <trkpt lat="43.21348" lon="5.44467">
        <ele>79.199996948242</ele>
        <time>2021-12-31T09:13:41Z</time>
      </trkpt>
      <trkpt lat="43.21349" lon="5.44471">
        <ele>78.199996948242</ele>
        <time>2021-12-31T09:13:59Z</time>
      </trkpt>
      <trkpt lat="43.2135" lon="5.44474">
        <ele>77.800003051758</ele>
        <time>2021-12-31T09:14:20Z</time>
      </trkpt>
      <trkpt lat="43.21353" lon="5.44479">
        <ele>76</ele>
        <time>2021-12-31T09:15:05Z</time>
      </trkpt>
      <trkpt lat="43.21354" lon="5.44494">
        <ele>73</ele>
        <time>2021-12-31T09:15:51Z</time>
      </trkpt>
      <trkpt lat="43.21346" lon="5.44491">
        <ele>70.800003051758</ele>
        <time>2021-12-31T09:16:09Z</time>
      </trkpt>
      <trkpt lat="43.21343" lon="5.44482">
        <ele>69.800003051758</ele>
        <time>2021-12-31T09:16:47Z</time>
      </trkpt>
      <trkpt lat="43.21342" lon="5.44494">
        <ele>67.400001525879</ele>
        <time>2021-12-31T09:17:03Z</time>
      </trkpt>
      <trkpt lat="43.21335" lon="5.44504">
        <ele>64</ele>
        <time>2021-12-31T09:17:27Z</time>
      </trkpt>
      <trkpt lat="43.21325" lon="5.44521">
        <ele>61.799999237061</ele>
        <time>2021-12-31T09:17:49Z</time>
      </trkpt>
      <trkpt lat="43.21316" lon="5.44546">
        <ele>62.599998474121</ele>
        <time>2021-12-31T09:18:11Z</time>
      </trkpt>
      <trkpt lat="43.21313" lon="5.44569">
        <ele>64</ele>
        <time>2021-12-31T09:18:31Z</time>
      </trkpt>
      <trkpt lat="43.21301" lon="5.44579">
        <ele>62.599998474121</ele>
        <time>2021-12-31T09:18:51Z</time>
      </trkpt>
      <trkpt lat="43.21289" lon="5.44585">
        <ele>64</ele>
        <time>2021-12-31T09:19:15Z</time>
      </trkpt>
      <trkpt lat="43.21273" lon="5.4459">
        <ele>61.400001525879</ele>
        <time>2021-12-31T09:19:37Z</time>
      </trkpt>
      <trkpt lat="43.21268" lon="5.44585">
        <ele>58.200000762939</ele>
        <time>2021-12-31T09:19:55Z</time>
      </trkpt>
      <trkpt lat="43.21284" lon="5.44571">
        <ele>55.599998474121</ele>
        <time>2021-12-31T09:20:18Z</time>
      </trkpt>
      <trkpt lat="43.21292" lon="5.44559">
        <ele>52.599998474121</ele>
        <time>2021-12-31T09:20:44Z</time>
      </trkpt>
      <trkpt lat="43.21294" lon="5.44549">
        <ele>49.599998474121</ele>
        <time>2021-12-31T09:21:06Z</time>
      </trkpt>
      <trkpt lat="43.21297" lon="5.4453">
        <ele>46.599998474121</ele>
        <time>2021-12-31T09:21:24Z</time>
      </trkpt>
      <trkpt lat="43.21302" lon="5.44514">
        <ele>43.400001525879</ele>
        <time>2021-12-31T09:21:44Z</time>
      </trkpt>
      <trkpt lat="43.21301" lon="5.44507">
        <ele>40.400001525879</ele>
        <time>2021-12-31T09:22:00Z</time>
      </trkpt>
      <trkpt lat="43.21289" lon="5.44506">
        <ele>37.200000762939</ele>
        <time>2021-12-31T09:22:17Z</time>
      </trkpt>
      <trkpt lat="43.21279" lon="5.44503">
        <ele>34.400001525879</ele>
        <time>2021-12-31T09:22:36Z</time>
      </trkpt>
      <trkpt lat="43.21275" lon="5.44503">
        <ele>31.39999961853</ele>
        <time>2021-12-31T09:22:50Z</time>
      </trkpt>
      <trkpt lat="43.21279" lon="5.44497">
        <ele>29.799999237061</ele>
        <time>2021-12-31T09:23:13Z</time>
      </trkpt>
      <trkpt lat="43.21285" lon="5.44485">
        <ele>27</ele>
        <time>2021-12-31T09:23:38Z</time>
      </trkpt>
      <trkpt lat="43.21276" lon="5.44479">
        <ele>23.799999237061</ele>
        <time>2021-12-31T09:23:58Z</time>
      </trkpt>
      <trkpt lat="43.21269" lon="5.44472">
        <ele>22.200000762939</ele>
        <time>2021-12-31T09:24:11Z</time>
      </trkpt>
      <trkpt lat="43.21269" lon="5.44454">
        <ele>24.39999961853</ele>
        <time>2021-12-31T09:24:35Z</time>
      </trkpt>
      <trkpt lat="43.21265" lon="5.44449">
        <ele>23.200000762939</ele>
        <time>2021-12-31T09:25:06Z</time>
      </trkpt>
      <trkpt lat="43.21273" lon="5.44455">
        <ele>23.200000762939</ele>
        <time>2021-12-31T09:25:41Z</time>
      </trkpt>
      <trkpt lat="43.21283" lon="5.44441">
        <ele>23.39999961853</ele>
        <time>2021-12-31T09:26:02Z</time>
      </trkpt>
      <trkpt lat="43.21288" lon="5.44427">
        <ele>22.799999237061</ele>
        <time>2021-12-31T09:26:25Z</time>
      </trkpt>
      <trkpt lat="43.21292" lon="5.44414">
        <ele>20.200000762939</ele>
        <time>2021-12-31T09:26:45Z</time>
      </trkpt>
      <trkpt lat="43.21298" lon="5.44399">
        <ele>17.60000038147</ele>
        <time>2021-12-31T09:27:06Z</time>
      </trkpt>
      <trkpt lat="43.21294" lon="5.44389">
        <ele>15.60000038147</ele>
        <time>2021-12-31T09:27:26Z</time>
      </trkpt>
      <trkpt lat="43.21297" lon="5.44389">
        <ele>13.60000038147</ele>
        <time>2021-12-31T09:27:47Z</time>
      </trkpt>
      <trkpt lat="43.213" lon="5.44365">
        <ele>13.800000190735</ele>
        <time>2021-12-31T09:28:11Z</time>
      </trkpt>
      <trkpt lat="43.21299" lon="5.44362">
        <ele>13.60000038147</ele>
        <time>2021-12-31T09:28:40Z</time>
      </trkpt>
      <trkpt lat="43.21305" lon="5.44344">
        <ele>14</ele>
        <time>2021-12-31T09:29:01Z</time>
      </trkpt>
      <trkpt lat="43.21296" lon="5.44332">
        <ele>14.199999809265</ele>
        <time>2021-12-31T09:29:19Z</time>
      </trkpt>
      <trkpt lat="43.2129" lon="5.44327">
        <ele>14</ele>
        <time>2021-12-31T09:29:25Z</time>
      </trkpt>
      <trkpt lat="43.21274" lon="5.44322">
        <ele>14</ele>
        <time>2021-12-31T09:29:44Z</time>
      </trkpt>
      <trkpt lat="43.21271" lon="5.44322">
        <ele>14.199999809265</ele>
        <time>2021-12-31T09:30:00Z</time>
      </trkpt>
      <trkpt lat="43.2128" lon="5.44319">
        <ele>13.60000038147</ele>
        <time>2021-12-31T09:30:57Z</time>
      </trkpt>
      <trkpt lat="43.21279" lon="5.4432">
        <ele>13.60000038147</ele>
        <time>2021-12-31T09:31:43Z</time>
      </trkpt>
      <trkpt lat="43.2128" lon="5.44319">
        <ele>13.60000038147</ele>
        <time>2021-12-31T09:31:46Z</time>
      </trkpt>
      <trkpt lat="43.21283" lon="5.4432">
        <ele>14.199999809265</ele>
        <time>2021-12-31T09:32:17Z</time>
      </trkpt>
      <trkpt lat="43.21277" lon="5.4433">
        <ele>14</ele>
        <time>2021-12-31T09:32:41Z</time>
      </trkpt>
      <trkpt lat="43.21276" lon="5.44331">
        <ele>14</ele>
        <time>2021-12-31T09:32:42Z</time>
      </trkpt>
      <trkpt lat="43.2127" lon="5.44332">
        <ele>14</ele>
        <time>2021-12-31T09:32:52Z</time>
      </trkpt>
      <trkpt lat="43.21256" lon="5.44347">
        <ele>14</ele>
        <time>2021-12-31T09:33:15Z</time>
      </trkpt>
      <trkpt lat="43.21248" lon="5.4436">
        <ele>14</ele>
        <time>2021-12-31T09:33:33Z</time>
      </trkpt>
      <trkpt lat="43.21238" lon="5.44373">
        <ele>13.800000190735</ele>
        <time>2021-12-31T09:33:47Z</time>
      </trkpt>
      <trkpt lat="43.21223" lon="5.44393">
        <ele>13.800000190735</ele>
        <time>2021-12-31T09:34:07Z</time>
      </trkpt>
      <trkpt lat="43.21217" lon="5.44403">
        <ele>14</ele>
        <time>2021-12-31T09:34:32Z</time>
      </trkpt>
      <trkpt lat="43.21215" lon="5.4441">
        <ele>14.60000038147</ele>
        <time>2021-12-31T09:34:50Z</time>
      </trkpt>
      <trkpt lat="43.21219" lon="5.44415">
        <ele>15.199999809265</ele>
        <time>2021-12-31T09:35:13Z</time>
      </trkpt>
      <trkpt lat="43.21219" lon="5.44415">
        <ele>15.39999961853</ele>
        <time>2021-12-31T09:35:14Z</time>
      </trkpt>
      <trkpt lat="43.21198" lon="5.44417">
        <ele>17</ele>
        <time>2021-12-31T09:35:37Z</time>
      </trkpt>
      <trkpt lat="43.21193" lon="5.44419">
        <ele>19.39999961853</ele>
        <time>2021-12-31T09:35:52Z</time>
      </trkpt>
      <trkpt lat="43.21192" lon="5.44421">
        <ele>21.39999961853</ele>
        <time>2021-12-31T09:36:13Z</time>
      </trkpt>
      <trkpt lat="43.21187" lon="5.44423">
        <ele>21.60000038147</ele>
        <time>2021-12-31T09:36:31Z</time>
      </trkpt>
      <trkpt lat="43.21177" lon="5.44428">
        <ele>21.39999961853</ele>
        <time>2021-12-31T09:36:45Z</time>
      </trkpt>
      <trkpt lat="43.21186" lon="5.44419">
        <ele>22.200000762939</ele>
        <time>2021-12-31T09:37:06Z</time>
      </trkpt>
      <trkpt lat="43.21179" lon="5.44412">
        <ele>24.60000038147</ele>
        <time>2021-12-31T09:37:25Z</time>
      </trkpt>
      <trkpt lat="43.21168" lon="5.44412">
        <ele>27.60000038147</ele>
        <time>2021-12-31T09:37:52Z</time>
      </trkpt>
      <trkpt lat="43.21166" lon="5.44409">
        <ele>28.799999237061</ele>
        <time>2021-12-31T09:38:17Z</time>
      </trkpt>
      <trkpt lat="43.21155" lon="5.44402">
        <ele>30.200000762939</ele>
        <time>2021-12-31T09:38:38Z</time>
      </trkpt>
      <trkpt lat="43.21148" lon="5.44407">
        <ele>30.39999961853</ele>
        <time>2021-12-31T09:39:00Z</time>
      </trkpt>
      <trkpt lat="43.21143" lon="5.44419">
        <ele>32.200000762939</ele>
        <time>2021-12-31T09:39:24Z</time>
      </trkpt>
      <trkpt lat="43.2114" lon="5.44422">
        <ele>32.400001525879</ele>
        <time>2021-12-31T09:40:00Z</time>
      </trkpt>
      <trkpt lat="43.2114" lon="5.44422">
        <ele>32.400001525879</ele>
        <time>2021-12-31T09:40:14Z</time>
      </trkpt>
      <trkpt lat="43.21137" lon="5.44426">
        <ele>32.599998474121</ele>
        <time>2021-12-31T09:41:01Z</time>
      </trkpt>
      <trkpt lat="43.21134" lon="5.44435">
        <ele>35.799999237061</ele>
        <time>2021-12-31T09:41:19Z</time>
      </trkpt>
      <trkpt lat="43.21131" lon="5.44452">
        <ele>38.799999237061</ele>
        <time>2021-12-31T09:41:42Z</time>
      </trkpt>
      <trkpt lat="43.21131" lon="5.44469">
        <ele>40.599998474121</ele>
        <time>2021-12-31T09:42:05Z</time>
      </trkpt>
      <trkpt lat="43.21127" lon="5.44472">
        <ele>40.200000762939</ele>
        <time>2021-12-31T09:42:26Z</time>
      </trkpt>
      <trkpt lat="43.21112" lon="5.44481">
        <ele>38.200000762939</ele>
        <time>2021-12-31T09:42:45Z</time>
      </trkpt>
      <trkpt lat="43.21104" lon="5.44488">
        <ele>36.400001525879</ele>
        <time>2021-12-31T09:43:03Z</time>
      </trkpt>
      <trkpt lat="43.21103" lon="5.44489">
        <ele>36.400001525879</ele>
        <time>2021-12-31T09:43:05Z</time>
      </trkpt>
      <trkpt lat="43.21101" lon="5.44495">
        <ele>36</ele>
        <time>2021-12-31T09:43:10Z</time>
      </trkpt>
      <trkpt lat="43.21096" lon="5.44505">
        <ele>33.599998474121</ele>
        <time>2021-12-31T09:43:26Z</time>
      </trkpt>
      <trkpt lat="43.21092" lon="5.44517">
        <ele>34.400001525879</ele>
        <time>2021-12-31T09:43:48Z</time>
      </trkpt>
      <trkpt lat="43.21089" lon="5.44516">
        <ele>34.599998474121</ele>
        <time>2021-12-31T09:43:50Z</time>
      </trkpt>
      <trkpt lat="43.21078" lon="5.44526">
        <ele>35</ele>
        <time>2021-12-31T09:44:04Z</time>
      </trkpt>
      <trkpt lat="43.21076" lon="5.44535">
        <ele>34.799999237061</ele>
        <time>2021-12-31T09:44:13Z</time>
      </trkpt>
      <trkpt lat="43.21073" lon="5.44539">
        <ele>34.599998474121</ele>
        <time>2021-12-31T09:44:16Z</time>
      </trkpt>
      <trkpt lat="43.21064" lon="5.4455">
        <ele>33.400001525879</ele>
        <time>2021-12-31T09:44:34Z</time>
      </trkpt>
      <trkpt lat="43.21058" lon="5.44554">
        <ele>33.799999237061</ele>
        <time>2021-12-31T09:44:57Z</time>
      </trkpt>
      <trkpt lat="43.21046" lon="5.4456">
        <ele>32</ele>
        <time>2021-12-31T09:45:16Z</time>
      </trkpt>
      <trkpt lat="43.21038" lon="5.44558">
        <ele>32.200000762939</ele>
        <time>2021-12-31T09:45:34Z</time>
      </trkpt>
      <trkpt lat="43.2103" lon="5.44564">
        <ele>31.799999237061</ele>
        <time>2021-12-31T09:45:51Z</time>
      </trkpt>
      <trkpt lat="43.2102" lon="5.44571">
        <ele>31.39999961853</ele>
        <time>2021-12-31T09:46:11Z</time>
      </trkpt>
      <trkpt lat="43.21019" lon="5.44573">
        <ele>31.39999961853</ele>
        <time>2021-12-31T09:46:36Z</time>
      </trkpt>
      <trkpt lat="43.21015" lon="5.44567">
        <ele>33</ele>
        <time>2021-12-31T09:47:00Z</time>
      </trkpt>
      <trkpt lat="43.21014" lon="5.44566">
        <ele>33.599998474121</ele>
        <time>2021-12-31T09:47:08Z</time>
      </trkpt>
      <trkpt lat="43.21016" lon="5.44566">
        <ele>33.599998474121</ele>
        <time>2021-12-31T09:47:10Z</time>
      </trkpt>
      <trkpt lat="43.21014" lon="5.44568">
        <ele>34</ele>
        <time>2021-12-31T09:47:32Z</time>
      </trkpt>
      <trkpt lat="43.21015" lon="5.44567">
        <ele>33</ele>
        <time>2021-12-31T09:47:45Z</time>
      </trkpt>
      <trkpt lat="43.21017" lon="5.44572">
        <ele>32.799999237061</ele>
        <time>2021-12-31T09:48:22Z</time>
      </trkpt>
      <trkpt lat="43.21014" lon="5.4457">
        <ele>33.400001525879</ele>
        <time>2021-12-31T09:48:55Z</time>
      </trkpt>
      <trkpt lat="43.21017" lon="5.44567">
        <ele>34</ele>
        <time>2021-12-31T09:49:17Z</time>
      </trkpt>
      <trkpt lat="43.21018" lon="5.44571">
        <ele>33</ele>
        <time>2021-12-31T09:49:42Z</time>
      </trkpt>
      <trkpt lat="43.21016" lon="5.44571">
        <ele>31.799999237061</ele>
        <time>2021-12-31T09:50:22Z</time>
      </trkpt>
      <trkpt lat="43.21016" lon="5.4457">
        <ele>31.799999237061</ele>
        <time>2021-12-31T09:50:56Z</time>
      </trkpt>
      <trkpt lat="43.2101" lon="5.44578">
        <ele>30.60000038147</ele>
        <time>2021-12-31T09:51:17Z</time>
      </trkpt>
      <trkpt lat="43.20996" lon="5.44585">
        <ele>30.60000038147</ele>
        <time>2021-12-31T09:51:37Z</time>
      </trkpt>
      <trkpt lat="43.20987" lon="5.4459">
        <ele>33.200000762939</ele>
        <time>2021-12-31T09:51:56Z</time>
      </trkpt>
      <trkpt lat="43.20982" lon="5.44595">
        <ele>34.400001525879</ele>
        <time>2021-12-31T09:52:04Z</time>
      </trkpt>
      <trkpt lat="43.20977" lon="5.44598">
        <ele>34.599998474121</ele>
        <time>2021-12-31T09:52:09Z</time>
      </trkpt>
      <trkpt lat="43.20965" lon="5.44607">
        <ele>35.599998474121</ele>
        <time>2021-12-31T09:52:25Z</time>
      </trkpt>
      <trkpt lat="43.2095" lon="5.44613">
        <ele>38.799999237061</ele>
        <time>2021-12-31T09:52:46Z</time>
      </trkpt>
      <trkpt lat="43.20937" lon="5.44622">
        <ele>40.200000762939</ele>
        <time>2021-12-31T09:53:02Z</time>
      </trkpt>
      <trkpt lat="43.20935" lon="5.44625">
        <ele>40.200000762939</ele>
        <time>2021-12-31T09:53:04Z</time>
      </trkpt>
      <trkpt lat="43.20923" lon="5.44636">
        <ele>39.799999237061</ele>
        <time>2021-12-31T09:53:22Z</time>
      </trkpt>
      <trkpt lat="43.20911" lon="5.44642">
        <ele>41</ele>
        <time>2021-12-31T09:53:42Z</time>
      </trkpt>
      <trkpt lat="43.20905" lon="5.4464">
        <ele>40.400001525879</ele>
        <time>2021-12-31T09:54:09Z</time>
      </trkpt>
      <trkpt lat="43.20896" lon="5.44629">
        <ele>38.200000762939</ele>
        <time>2021-12-31T09:54:25Z</time>
      </trkpt>
      <trkpt lat="43.20885" lon="5.44624">
        <ele>35.799999237061</ele>
        <time>2021-12-31T09:54:42Z</time>
      </trkpt>
      <trkpt lat="43.20878" lon="5.44624">
        <ele>35.400001525879</ele>
        <time>2021-12-31T09:54:50Z</time>
      </trkpt>
      <trkpt lat="43.20869" lon="5.44625">
        <ele>37.599998474121</ele>
        <time>2021-12-31T09:55:08Z</time>
      </trkpt>
      <trkpt lat="43.20853" lon="5.44638">
        <ele>39.400001525879</ele>
        <time>2021-12-31T09:55:31Z</time>
      </trkpt>
      <trkpt lat="43.20852" lon="5.44637">
        <ele>39.200000762939</ele>
        <time>2021-12-31T09:55:33Z</time>
      </trkpt>
      <trkpt lat="43.20838" lon="5.44629">
        <ele>39.400001525879</ele>
        <time>2021-12-31T09:55:53Z</time>
      </trkpt>
      <trkpt lat="43.20837" lon="5.44628">
        <ele>39.200000762939</ele>
        <time>2021-12-31T09:55:55Z</time>
      </trkpt>
      <trkpt lat="43.20827" lon="5.4462">
        <ele>37.400001525879</ele>
        <time>2021-12-31T09:56:10Z</time>
      </trkpt>
      <trkpt lat="43.20812" lon="5.44615">
        <ele>37.799999237061</ele>
        <time>2021-12-31T09:56:32Z</time>
      </trkpt>
      <trkpt lat="43.20809" lon="5.4461">
        <ele>40</ele>
        <time>2021-12-31T09:56:50Z</time>
      </trkpt>
      <trkpt lat="43.208" lon="5.44606">
        <ele>40.599998474121</ele>
        <time>2021-12-31T09:57:10Z</time>
      </trkpt>
      <trkpt lat="43.2079" lon="5.44593">
        <ele>41</ele>
        <time>2021-12-31T09:57:30Z</time>
      </trkpt>
      <trkpt lat="43.20776" lon="5.44586">
        <ele>42</ele>
        <time>2021-12-31T09:57:49Z</time>
      </trkpt>
      <trkpt lat="43.20757" lon="5.44587">
        <ele>43</ele>
        <time>2021-12-31T09:58:13Z</time>
      </trkpt>
      <trkpt lat="43.20752" lon="5.44595">
        <ele>46</ele>
        <time>2021-12-31T09:58:29Z</time>
      </trkpt>
      <trkpt lat="43.20742" lon="5.44599">
        <ele>49.200000762939</ele>
        <time>2021-12-31T09:58:51Z</time>
      </trkpt>
      <trkpt lat="43.20726" lon="5.44604">
        <ele>52.200000762939</ele>
        <time>2021-12-31T09:59:12Z</time>
      </trkpt>
      <trkpt lat="43.20722" lon="5.44604">
        <ele>55.200000762939</ele>
        <time>2021-12-31T09:59:32Z</time>
      </trkpt>
      <trkpt lat="43.20715" lon="5.4461">
        <ele>58.400001525879</ele>
        <time>2021-12-31T09:59:50Z</time>
      </trkpt>
      <trkpt lat="43.20708" lon="5.44617">
        <ele>61.200000762939</ele>
        <time>2021-12-31T10:00:10Z</time>
      </trkpt>
      <trkpt lat="43.20698" lon="5.44618">
        <ele>64.199996948242</ele>
        <time>2021-12-31T10:00:30Z</time>
      </trkpt>
      <trkpt lat="43.20696" lon="5.44619">
        <ele>65.400001525879</ele>
        <time>2021-12-31T10:00:35Z</time>
      </trkpt>
      <trkpt lat="43.20687" lon="5.44618">
        <ele>68.800003051758</ele>
        <time>2021-12-31T10:00:54Z</time>
      </trkpt>
      <trkpt lat="43.20686" lon="5.44613">
        <ele>71.800003051758</ele>
        <time>2021-12-31T10:01:15Z</time>
      </trkpt>
      <trkpt lat="43.20677" lon="5.4461">
        <ele>74.800003051758</ele>
        <time>2021-12-31T10:01:34Z</time>
      </trkpt>
      <trkpt lat="43.2067" lon="5.44613">
        <ele>78</ele>
        <time>2021-12-31T10:01:53Z</time>
      </trkpt>
      <trkpt lat="43.20668" lon="5.44603">
        <ele>81.199996948242</ele>
        <time>2021-12-31T10:02:15Z</time>
      </trkpt>
      <trkpt lat="43.20663" lon="5.44602">
        <ele>84.199996948242</ele>
        <time>2021-12-31T10:02:36Z</time>
      </trkpt>
      <trkpt lat="43.20661" lon="5.44597">
        <ele>87.400001525879</ele>
        <time>2021-12-31T10:02:56Z</time>
      </trkpt>
      <trkpt lat="43.20655" lon="5.44591">
        <ele>90.400001525879</ele>
        <time>2021-12-31T10:03:16Z</time>
      </trkpt>
      <trkpt lat="43.2065" lon="5.44587">
        <ele>93.400001525879</ele>
        <time>2021-12-31T10:03:30Z</time>
      </trkpt>
      <trkpt lat="43.20649" lon="5.44589">
        <ele>96.599998474121</ele>
        <time>2021-12-31T10:03:47Z</time>
      </trkpt>
      <trkpt lat="43.20645" lon="5.44593">
        <ele>97</ele>
        <time>2021-12-31T10:04:15Z</time>
      </trkpt>
      <trkpt lat="43.20645" lon="5.44601">
        <ele>96.800003051758</ele>
        <time>2021-12-31T10:05:09Z</time>
      </trkpt>
      <trkpt lat="43.2064" lon="5.44608">
        <ele>96.400001525879</ele>
        <time>2021-12-31T10:05:24Z</time>
      </trkpt>
      <trkpt lat="43.20634" lon="5.44611">
        <ele>93.800003051758</ele>
        <time>2021-12-31T10:06:00Z</time>
      </trkpt>
      <trkpt lat="43.20637" lon="5.44618">
        <ele>93</ele>
        <time>2021-12-31T10:06:21Z</time>
      </trkpt>
      <trkpt lat="43.20634" lon="5.44629">
        <ele>93</ele>
        <time>2021-12-31T10:06:44Z</time>
      </trkpt>
      <trkpt lat="43.20625" lon="5.44639">
        <ele>90.199996948242</ele>
        <time>2021-12-31T10:07:07Z</time>
      </trkpt>
      <trkpt lat="43.20622" lon="5.44645">
        <ele>87.199996948242</ele>
        <time>2021-12-31T10:07:23Z</time>
      </trkpt>
      <trkpt lat="43.20617" lon="5.44656">
        <ele>85.199996948242</ele>
        <time>2021-12-31T10:07:46Z</time>
      </trkpt>
      <trkpt lat="43.20612" lon="5.44659">
        <ele>82.199996948242</ele>
        <time>2021-12-31T10:08:09Z</time>
      </trkpt>
      <trkpt lat="43.2061" lon="5.44672">
        <ele>80.400001525879</ele>
        <time>2021-12-31T10:08:28Z</time>
      </trkpt>
      <trkpt lat="43.20604" lon="5.44668">
        <ele>78.400001525879</ele>
        <time>2021-12-31T10:08:43Z</time>
      </trkpt>
      <trkpt lat="43.20599" lon="5.44657">
        <ele>75.400001525879</ele>
        <time>2021-12-31T10:09:02Z</time>
      </trkpt>
      <trkpt lat="43.20601" lon="5.44656">
        <ele>74.800003051758</ele>
        <time>2021-12-31T10:09:28Z</time>
      </trkpt>
      <trkpt lat="43.20609" lon="5.44648">
        <ele>75.199996948242</ele>
        <time>2021-12-31T10:09:55Z</time>
      </trkpt>
      <trkpt lat="43.20606" lon="5.44644">
        <ele>75.599998474121</ele>
        <time>2021-12-31T10:10:26Z</time>
      </trkpt>
      <trkpt lat="43.20605" lon="5.4465">
        <ele>75.199996948242</ele>
        <time>2021-12-31T10:10:55Z</time>
      </trkpt>
      <trkpt lat="43.20601" lon="5.44655">
        <ele>75.400001525879</ele>
        <time>2021-12-31T10:11:15Z</time>
      </trkpt>
      <trkpt lat="43.20599" lon="5.4466">
        <ele>74.400001525879</ele>
        <time>2021-12-31T10:11:32Z</time>
      </trkpt>
      <trkpt lat="43.20604" lon="5.44666">
        <ele>74.599998474121</ele>
        <time>2021-12-31T10:12:03Z</time>
      </trkpt>
      <trkpt lat="43.20611" lon="5.44672">
        <ele>76.800003051758</ele>
        <time>2021-12-31T10:12:29Z</time>
      </trkpt>
      <trkpt lat="43.20618" lon="5.44675">
        <ele>78.199996948242</ele>
        <time>2021-12-31T10:12:49Z</time>
      </trkpt>
      <trkpt lat="43.20619" lon="5.44675">
        <ele>79.599998474121</ele>
        <time>2021-12-31T10:13:18Z</time>
      </trkpt>
      <trkpt lat="43.20627" lon="5.44674">
        <ele>81.599998474121</ele>
        <time>2021-12-31T10:13:36Z</time>
      </trkpt>
      <trkpt lat="43.2063" lon="5.44677">
        <ele>84.599998474121</ele>
        <time>2021-12-31T10:13:52Z</time>
      </trkpt>
      <trkpt lat="43.20639" lon="5.44678">
        <ele>87</ele>
        <time>2021-12-31T10:14:14Z</time>
      </trkpt>
      <trkpt lat="43.20645" lon="5.44679">
        <ele>90</ele>
        <time>2021-12-31T10:14:35Z</time>
      </trkpt>
      <trkpt lat="43.2065" lon="5.44681">
        <ele>93.199996948242</ele>
        <time>2021-12-31T10:14:54Z</time>
      </trkpt>
      <trkpt lat="43.20648" lon="5.44681">
        <ele>93.199996948242</ele>
        <time>2021-12-31T10:15:28Z</time>
      </trkpt>
      <trkpt lat="43.20652" lon="5.44679">
        <ele>93.400001525879</ele>
        <time>2021-12-31T10:16:20Z</time>
      </trkpt>
      <trkpt lat="43.20655" lon="5.44677">
        <ele>93.400001525879</ele>
        <time>2021-12-31T10:16:24Z</time>
      </trkpt>
      <trkpt lat="43.20647" lon="5.44678">
        <ele>94</ele>
        <time>2021-12-31T10:17:04Z</time>
      </trkpt>
      <trkpt lat="43.20647" lon="5.44682">
        <ele>94.199996948242</ele>
        <time>2021-12-31T10:17:32Z</time>
      </trkpt>
      <trkpt lat="43.20648" lon="5.44682">
        <ele>94.400001525879</ele>
        <time>2021-12-31T10:18:40Z</time>
      </trkpt>
      <trkpt lat="43.20648" lon="5.44683">
        <ele>94.599998474121</ele>
        <time>2021-12-31T10:19:49Z</time>
      </trkpt>
      <trkpt lat="43.20647" lon="5.44681">
        <ele>94.400001525879</ele>
        <time>2021-12-31T10:20:17Z</time>
      </trkpt>
      <trkpt lat="43.20646" lon="5.44681">
        <ele>94.199996948242</ele>
        <time>2021-12-31T10:23:09Z</time>
      </trkpt>
      <trkpt lat="43.20647" lon="5.44683">
        <ele>94.400001525879</ele>
        <time>2021-12-31T10:23:34Z</time>
      </trkpt>
      <trkpt lat="43.20647" lon="5.44706">
        <ele>94.599998474121</ele>
        <time>2021-12-31T10:23:53Z</time>
      </trkpt>
      <trkpt lat="43.20645" lon="5.44718">
        <ele>94.199996948242</ele>
        <time>2021-12-31T10:24:07Z</time>
      </trkpt>
      <trkpt lat="43.20638" lon="5.4473">
        <ele>92.199996948242</ele>
        <time>2021-12-31T10:24:26Z</time>
      </trkpt>
      <trkpt lat="43.2063" lon="5.44745">
        <ele>89.400001525879</ele>
        <time>2021-12-31T10:24:45Z</time>
      </trkpt>
      <trkpt lat="43.20616" lon="5.44763">
        <ele>88.800003051758</ele>
        <time>2021-12-31T10:25:08Z</time>
      </trkpt>
      <trkpt lat="43.20605" lon="5.44767">
        <ele>89.599998474121</ele>
        <time>2021-12-31T10:25:25Z</time>
      </trkpt>
      <trkpt lat="43.20593" lon="5.44776">
        <ele>91.800003051758</ele>
        <time>2021-12-31T10:25:47Z</time>
      </trkpt>
      <trkpt lat="43.20583" lon="5.44784">
        <ele>93.800003051758</ele>
        <time>2021-12-31T10:26:10Z</time>
      </trkpt>
      <trkpt lat="43.20572" lon="5.44789">
        <ele>96.199996948242</ele>
        <time>2021-12-31T10:26:32Z</time>
      </trkpt>
      <trkpt lat="43.20555" lon="5.44792">
        <ele>96.599998474121</ele>
        <time>2021-12-31T10:26:55Z</time>
      </trkpt>
      <trkpt lat="43.20539" lon="5.44798">
        <ele>97</ele>
        <time>2021-12-31T10:27:15Z</time>
      </trkpt>
      <trkpt lat="43.20534" lon="5.44797">
        <ele>100.19999694824</ele>
        <time>2021-12-31T10:27:37Z</time>
      </trkpt>
      <trkpt lat="43.20525" lon="5.448">
        <ele>102.40000152588</ele>
        <time>2021-12-31T10:27:55Z</time>
      </trkpt>
      <trkpt lat="43.20525" lon="5.44802">
        <ele>102.40000152588</ele>
        <time>2021-12-31T10:28:13Z</time>
      </trkpt>
      <trkpt lat="43.20538" lon="5.44806">
        <ele>104.59999847412</ele>
        <time>2021-12-31T10:28:34Z</time>
      </trkpt>
      <trkpt lat="43.20541" lon="5.44808">
        <ele>107.59999847412</ele>
        <time>2021-12-31T10:28:56Z</time>
      </trkpt>
      <trkpt lat="43.20545" lon="5.44816">
        <ele>109.19999694824</ele>
        <time>2021-12-31T10:29:17Z</time>
      </trkpt>
      <trkpt lat="43.20552" lon="5.44823">
        <ele>112.19999694824</ele>
        <time>2021-12-31T10:29:35Z</time>
      </trkpt>
      <trkpt lat="43.20562" lon="5.44825">
        <ele>115</ele>
        <time>2021-12-31T10:29:57Z</time>
      </trkpt>
      <trkpt lat="43.20567" lon="5.44831">
        <ele>116</ele>
        <time>2021-12-31T10:30:18Z</time>
      </trkpt>
      <trkpt lat="43.2057" lon="5.44843">
        <ele>117.80000305176</ele>
        <time>2021-12-31T10:30:34Z</time>
      </trkpt>
      <trkpt lat="43.20574" lon="5.44852">
        <ele>118.59999847412</ele>
        <time>2021-12-31T10:30:51Z</time>
      </trkpt>
      <trkpt lat="43.20574" lon="5.44853">
        <ele>118</ele>
        <time>2021-12-31T10:31:25Z</time>
      </trkpt>
      <trkpt lat="43.20574" lon="5.44853">
        <ele>118</ele>
        <time>2021-12-31T10:32:06Z</time>
      </trkpt>
      <trkpt lat="43.20573" lon="5.44854">
        <ele>117.80000305176</ele>
        <time>2021-12-31T10:32:55Z</time>
      </trkpt>
      <trkpt lat="43.20573" lon="5.44857">
        <ele>117.80000305176</ele>
        <time>2021-12-31T10:33:20Z</time>
      </trkpt>
      <trkpt lat="43.20572" lon="5.44857">
        <ele>118</ele>
        <time>2021-12-31T10:33:59Z</time>
      </trkpt>
      <trkpt lat="43.20571" lon="5.4485">
        <ele>118.19999694824</ele>
        <time>2021-12-31T10:34:26Z</time>
      </trkpt>
      <trkpt lat="43.20567" lon="5.44845">
        <ele>118.59999847412</ele>
        <time>2021-12-31T10:34:49Z</time>
      </trkpt>
      <trkpt lat="43.20564" lon="5.44845">
        <ele>118.80000305176</ele>
        <time>2021-12-31T10:35:21Z</time>
      </trkpt>
      <trkpt lat="43.20546" lon="5.44852">
        <ele>121.19999694824</ele>
        <time>2021-12-31T10:35:46Z</time>
      </trkpt>
      <trkpt lat="43.20539" lon="5.44866">
        <ele>120.19999694824</ele>
        <time>2021-12-31T10:36:04Z</time>
      </trkpt>
      <trkpt lat="43.20538" lon="5.44889">
        <ele>118.19999694824</ele>
        <time>2021-12-31T10:36:25Z</time>
      </trkpt>
      <trkpt lat="43.20537" lon="5.44903">
        <ele>116</ele>
        <time>2021-12-31T10:36:45Z</time>
      </trkpt>
      <trkpt lat="43.20535" lon="5.44918">
        <ele>113.19999694824</ele>
        <time>2021-12-31T10:37:03Z</time>
      </trkpt>
      <trkpt lat="43.20532" lon="5.44934">
        <ele>110.19999694824</ele>
        <time>2021-12-31T10:37:25Z</time>
      </trkpt>
      <trkpt lat="43.20528" lon="5.44944">
        <ele>108</ele>
        <time>2021-12-31T10:37:44Z</time>
      </trkpt>
      <trkpt lat="43.20523" lon="5.44953">
        <ele>105</ele>
        <time>2021-12-31T10:38:07Z</time>
      </trkpt>
      <trkpt lat="43.20518" lon="5.44967">
        <ele>102.19999694824</ele>
        <time>2021-12-31T10:38:30Z</time>
      </trkpt>
      <trkpt lat="43.20514" lon="5.44989">
        <ele>99.599998474121</ele>
        <time>2021-12-31T10:38:52Z</time>
      </trkpt>
      <trkpt lat="43.20507" lon="5.44998">
        <ele>97</ele>
        <time>2021-12-31T10:39:17Z</time>
      </trkpt>
      <trkpt lat="43.20498" lon="5.45006">
        <ele>95.800003051758</ele>
        <time>2021-12-31T10:39:54Z</time>
      </trkpt>
      <trkpt lat="43.20496" lon="5.45016">
        <ele>94.599998474121</ele>
        <time>2021-12-31T10:40:04Z</time>
      </trkpt>
      <trkpt lat="43.20491" lon="5.45037">
        <ele>92</ele>
        <time>2021-12-31T10:40:27Z</time>
      </trkpt>
      <trkpt lat="43.20481" lon="5.45054">
        <ele>88.800003051758</ele>
        <time>2021-12-31T10:40:48Z</time>
      </trkpt>
      <trkpt lat="43.20474" lon="5.45071">
        <ele>85.800003051758</ele>
        <time>2021-12-31T10:41:09Z</time>
      </trkpt>
      <trkpt lat="43.20465" lon="5.45086">
        <ele>83</ele>
        <time>2021-12-31T10:41:32Z</time>
      </trkpt>
      <trkpt lat="43.2045" lon="5.45099">
        <ele>79.800003051758</ele>
        <time>2021-12-31T10:41:52Z</time>
      </trkpt>
      <trkpt lat="43.20441" lon="5.45111">
        <ele>76.800003051758</ele>
        <time>2021-12-31T10:42:16Z</time>
      </trkpt>
      <trkpt lat="43.20435" lon="5.45119">
        <ele>75.199996948242</ele>
        <time>2021-12-31T10:42:37Z</time>
      </trkpt>
      <trkpt lat="43.20427" lon="5.45131">
        <ele>74.599998474121</ele>
        <time>2021-12-31T10:43:11Z</time>
      </trkpt>
      <trkpt lat="43.2042" lon="5.45131">
        <ele>73.800003051758</ele>
        <time>2021-12-31T10:43:29Z</time>
      </trkpt>
      <trkpt lat="43.20418" lon="5.45143">
        <ele>72.800003051758</ele>
        <time>2021-12-31T10:43:45Z</time>
      </trkpt>
      <trkpt lat="43.20411" lon="5.45155">
        <ele>71.199996948242</ele>
        <time>2021-12-31T10:44:02Z</time>
      </trkpt>
      <trkpt lat="43.20408" lon="5.45177">
        <ele>69.599998474121</ele>
        <time>2021-12-31T10:44:23Z</time>
      </trkpt>
      <trkpt lat="43.20405" lon="5.45188">
        <ele>69</ele>
        <time>2021-12-31T10:44:42Z</time>
      </trkpt>
      <trkpt lat="43.20399" lon="5.452">
        <ele>68</ele>
        <time>2021-12-31T10:45:02Z</time>
      </trkpt>
      <trkpt lat="43.20397" lon="5.45204">
        <ele>67.800003051758</ele>
        <time>2021-12-31T10:45:23Z</time>
      </trkpt>
      <trkpt lat="43.20395" lon="5.45205">
        <ele>67.800003051758</ele>
        <time>2021-12-31T10:45:26Z</time>
      </trkpt>
      <trkpt lat="43.20387" lon="5.45214">
        <ele>66.800003051758</ele>
        <time>2021-12-31T10:45:44Z</time>
      </trkpt>
      <trkpt lat="43.20379" lon="5.45223">
        <ele>65.800003051758</ele>
        <time>2021-12-31T10:46:11Z</time>
      </trkpt>
      <trkpt lat="43.20367" lon="5.45231">
        <ele>64.400001525879</ele>
        <time>2021-12-31T10:46:35Z</time>
      </trkpt>
      <trkpt lat="43.20358" lon="5.45244">
        <ele>62.400001525879</ele>
        <time>2021-12-31T10:46:54Z</time>
      </trkpt>
      <trkpt lat="43.20354" lon="5.45265">
        <ele>61.200000762939</ele>
        <time>2021-12-31T10:47:13Z</time>
      </trkpt>
      <trkpt lat="43.20356" lon="5.45274">
        <ele>61.200000762939</ele>
        <time>2021-12-31T10:47:24Z</time>
      </trkpt>
      <trkpt lat="43.20359" lon="5.45277">
        <ele>61.200000762939</ele>
        <time>2021-12-31T10:47:27Z</time>
      </trkpt>
      <trkpt lat="43.20372" lon="5.45286">
        <ele>61.400001525879</ele>
        <time>2021-12-31T10:47:46Z</time>
      </trkpt>
      <trkpt lat="43.20384" lon="5.45291">
        <ele>60.799999237061</ele>
        <time>2021-12-31T10:48:07Z</time>
      </trkpt>
      <trkpt lat="43.20386" lon="5.45297">
        <ele>60.200000762939</ele>
        <time>2021-12-31T10:48:27Z</time>
      </trkpt>
      <trkpt lat="43.2039" lon="5.45293">
        <ele>59.200000762939</ele>
        <time>2021-12-31T10:48:44Z</time>
      </trkpt>
      <trkpt lat="43.20387" lon="5.45289">
        <ele>57.200000762939</ele>
        <time>2021-12-31T10:49:13Z</time>
      </trkpt>
      <trkpt lat="43.20386" lon="5.45286">
        <ele>57.400001525879</ele>
        <time>2021-12-31T10:49:55Z</time>
      </trkpt>
      <trkpt lat="43.20387" lon="5.45285">
        <ele>57</ele>
        <time>2021-12-31T10:50:06Z</time>
      </trkpt>
      <trkpt lat="43.20388" lon="5.45293">
        <ele>57.599998474121</ele>
        <time>2021-12-31T10:50:47Z</time>
      </trkpt>
      <trkpt lat="43.20388" lon="5.45295">
        <ele>59</ele>
        <time>2021-12-31T10:51:18Z</time>
      </trkpt>
      <trkpt lat="43.20382" lon="5.45293">
        <ele>60.799999237061</ele>
        <time>2021-12-31T10:51:39Z</time>
      </trkpt>
      <trkpt lat="43.20376" lon="5.45285">
        <ele>61.400001525879</ele>
        <time>2021-12-31T10:52:03Z</time>
      </trkpt>
      <trkpt lat="43.20369" lon="5.45287">
        <ele>62</ele>
        <time>2021-12-31T10:52:24Z</time>
      </trkpt>
      <trkpt lat="43.20368" lon="5.45287">
        <ele>62.400001525879</ele>
        <time>2021-12-31T10:53:06Z</time>
      </trkpt>
      <trkpt lat="43.20364" lon="5.45286">
        <ele>62.400001525879</ele>
        <time>2021-12-31T10:53:27Z</time>
      </trkpt>
      <trkpt lat="43.2036" lon="5.45279">
        <ele>62.599998474121</ele>
        <time>2021-12-31T10:53:49Z</time>
      </trkpt>
      <trkpt lat="43.2035" lon="5.45278">
        <ele>62.200000762939</ele>
        <time>2021-12-31T10:54:09Z</time>
      </trkpt>
      <trkpt lat="43.20345" lon="5.45276">
        <ele>63.200000762939</ele>
        <time>2021-12-31T10:54:33Z</time>
      </trkpt>
      <trkpt lat="43.20345" lon="5.45264">
        <ele>61.599998474121</ele>
        <time>2021-12-31T10:54:57Z</time>
      </trkpt>
      <trkpt lat="43.20336" lon="5.45258">
        <ele>61</ele>
        <time>2021-12-31T10:55:15Z</time>
      </trkpt>
      <trkpt lat="43.20327" lon="5.45243">
        <ele>59.799999237061</ele>
        <time>2021-12-31T10:55:33Z</time>
      </trkpt>
      <trkpt lat="43.20322" lon="5.45247">
        <ele>58.799999237061</ele>
        <time>2021-12-31T10:55:51Z</time>
      </trkpt>
      <trkpt lat="43.20317" lon="5.45262">
        <ele>58.400001525879</ele>
        <time>2021-12-31T10:56:10Z</time>
      </trkpt>
      <trkpt lat="43.20309" lon="5.45257">
        <ele>57.200000762939</ele>
        <time>2021-12-31T10:56:28Z</time>
      </trkpt>
      <trkpt lat="43.20296" lon="5.45247">
        <ele>55.200000762939</ele>
        <time>2021-12-31T10:56:47Z</time>
      </trkpt>
      <trkpt lat="43.20293" lon="5.45247">
        <ele>54.799999237061</ele>
        <time>2021-12-31T10:56:50Z</time>
      </trkpt>
      <trkpt lat="43.20281" lon="5.45252">
        <ele>51.799999237061</ele>
        <time>2021-12-31T10:57:06Z</time>
      </trkpt>
      <trkpt lat="43.20274" lon="5.45253">
        <ele>50.200000762939</ele>
        <time>2021-12-31T10:57:16Z</time>
      </trkpt>
      <trkpt lat="43.2027" lon="5.45254">
        <ele>50</ele>
        <time>2021-12-31T10:57:19Z</time>
      </trkpt>
      <trkpt lat="43.20258" lon="5.45256">
        <ele>47.200000762939</ele>
        <time>2021-12-31T10:57:33Z</time>
      </trkpt>
      <trkpt lat="43.20247" lon="5.45248">
        <ele>45.400001525879</ele>
        <time>2021-12-31T10:57:45Z</time>
      </trkpt>
      <trkpt lat="43.20237" lon="5.45235">
        <ele>43.400001525879</ele>
        <time>2021-12-31T10:58:01Z</time>
      </trkpt>
      <trkpt lat="43.20232" lon="5.45231">
        <ele>44.400001525879</ele>
        <time>2021-12-31T10:58:26Z</time>
      </trkpt>
      <trkpt lat="43.20215" lon="5.45221">
        <ele>44</ele>
        <time>2021-12-31T10:58:46Z</time>
      </trkpt>
      <trkpt lat="43.20194" lon="5.45209">
        <ele>43.400001525879</ele>
        <time>2021-12-31T10:59:12Z</time>
      </trkpt>
      <trkpt lat="43.20184" lon="5.4519">
        <ele>42.400001525879</ele>
        <time>2021-12-31T10:59:33Z</time>
      </trkpt>
      <trkpt lat="43.20175" lon="5.45171">
        <ele>42.200000762939</ele>
        <time>2021-12-31T10:59:53Z</time>
      </trkpt>
      <trkpt lat="43.20163" lon="5.45161">
        <ele>41.599998474121</ele>
        <time>2021-12-31T11:00:12Z</time>
      </trkpt>
      <trkpt lat="43.20153" lon="5.45152">
        <ele>40.799999237061</ele>
        <time>2021-12-31T11:00:28Z</time>
      </trkpt>
      <trkpt lat="43.20144" lon="5.45141">
        <ele>39.200000762939</ele>
        <time>2021-12-31T11:00:46Z</time>
      </trkpt>
      <trkpt lat="43.20142" lon="5.45138">
        <ele>38.599998474121</ele>
        <time>2021-12-31T11:01:05Z</time>
      </trkpt>
      <trkpt lat="43.20132" lon="5.45133">
        <ele>37.799999237061</ele>
        <time>2021-12-31T11:01:24Z</time>
      </trkpt>
      <trkpt lat="43.20125" lon="5.45126">
        <ele>36</ele>
        <time>2021-12-31T11:01:41Z</time>
      </trkpt>
      <trkpt lat="43.20122" lon="5.45123">
        <ele>34.799999237061</ele>
        <time>2021-12-31T11:02:30Z</time>
      </trkpt>
      <trkpt lat="43.20122" lon="5.4512">
        <ele>33.799999237061</ele>
        <time>2021-12-31T11:03:23Z</time>
      </trkpt>
      <trkpt lat="43.20121" lon="5.45124">
        <ele>33.599998474121</ele>
        <time>2021-12-31T11:04:13Z</time>
      </trkpt>
      <trkpt lat="43.20123" lon="5.45123">
        <ele>33.799999237061</ele>
        <time>2021-12-31T11:05:06Z</time>
      </trkpt>
      <trkpt lat="43.20127" lon="5.45129">
        <ele>35.400001525879</ele>
        <time>2021-12-31T11:05:33Z</time>
      </trkpt>
      <trkpt lat="43.2014" lon="5.4514">
        <ele>36.799999237061</ele>
        <time>2021-12-31T11:05:57Z</time>
      </trkpt>
      <trkpt lat="43.20149" lon="5.45151">
        <ele>38.400001525879</ele>
        <time>2021-12-31T11:06:15Z</time>
      </trkpt>
      <trkpt lat="43.20163" lon="5.4516">
        <ele>39</ele>
        <time>2021-12-31T11:06:29Z</time>
      </trkpt>
      <trkpt lat="43.20174" lon="5.45172">
        <ele>40.400001525879</ele>
        <time>2021-12-31T11:06:46Z</time>
      </trkpt>
      <trkpt lat="43.2018" lon="5.45181">
        <ele>41.400001525879</ele>
        <time>2021-12-31T11:06:58Z</time>
      </trkpt>
      <trkpt lat="43.20187" lon="5.45203">
        <ele>42.400001525879</ele>
        <time>2021-12-31T11:07:19Z</time>
      </trkpt>
      <trkpt lat="43.20208" lon="5.45216">
        <ele>43.599998474121</ele>
        <time>2021-12-31T11:07:43Z</time>
      </trkpt>
      <trkpt lat="43.20228" lon="5.45235">
        <ele>44.400001525879</ele>
        <time>2021-12-31T11:08:07Z</time>
      </trkpt>
      <trkpt lat="43.20242" lon="5.45249">
        <ele>43.400001525879</ele>
        <time>2021-12-31T11:08:24Z</time>
      </trkpt>
      <trkpt lat="43.20263" lon="5.45258">
        <ele>45.200000762939</ele>
        <time>2021-12-31T11:08:47Z</time>
      </trkpt>
      <trkpt lat="43.20277" lon="5.45254">
        <ele>47.400001525879</ele>
        <time>2021-12-31T11:09:03Z</time>
      </trkpt>
      <trkpt lat="43.20292" lon="5.45249">
        <ele>50.599998474121</ele>
        <time>2021-12-31T11:09:25Z</time>
      </trkpt>
      <trkpt lat="43.20301" lon="5.45241">
        <ele>53.200000762939</ele>
        <time>2021-12-31T11:09:46Z</time>
      </trkpt>
      <trkpt lat="43.20313" lon="5.45232">
        <ele>54.799999237061</ele>
        <time>2021-12-31T11:10:03Z</time>
      </trkpt>
      <trkpt lat="43.20328" lon="5.45215">
        <ele>57.799999237061</ele>
        <time>2021-12-31T11:10:27Z</time>
      </trkpt>
      <trkpt lat="43.20339" lon="5.452">
        <ele>60.200000762939</ele>
        <time>2021-12-31T11:10:48Z</time>
      </trkpt>
      <trkpt lat="43.20344" lon="5.45181">
        <ele>61.400001525879</ele>
        <time>2021-12-31T11:11:06Z</time>
      </trkpt>
      <trkpt lat="43.20355" lon="5.45165">
        <ele>62.799999237061</ele>
        <time>2021-12-31T11:11:28Z</time>
      </trkpt>
      <trkpt lat="43.20364" lon="5.4516">
        <ele>64.800003051758</ele>
        <time>2021-12-31T11:11:49Z</time>
      </trkpt>
      <trkpt lat="43.20364" lon="5.45158">
        <ele>65.400001525879</ele>
        <time>2021-12-31T11:12:34Z</time>
      </trkpt>
      <trkpt lat="43.20371" lon="5.4515">
        <ele>66</ele>
        <time>2021-12-31T11:13:12Z</time>
      </trkpt>
      <trkpt lat="43.20374" lon="5.45146">
        <ele>66.800003051758</ele>
        <time>2021-12-31T11:13:28Z</time>
      </trkpt>
      <trkpt lat="43.2038" lon="5.45133">
        <ele>68.199996948242</ele>
        <time>2021-12-31T11:13:47Z</time>
      </trkpt>
      <trkpt lat="43.20388" lon="5.45118">
        <ele>69.800003051758</ele>
        <time>2021-12-31T11:14:12Z</time>
      </trkpt>
      <trkpt lat="43.20397" lon="5.45102">
        <ele>71.599998474121</ele>
        <time>2021-12-31T11:14:29Z</time>
      </trkpt>
      <trkpt lat="43.20402" lon="5.45088">
        <ele>73</ele>
        <time>2021-12-31T11:14:44Z</time>
      </trkpt>
      <trkpt lat="43.20409" lon="5.45069">
        <ele>74.800003051758</ele>
        <time>2021-12-31T11:15:04Z</time>
      </trkpt>
      <trkpt lat="43.20416" lon="5.45054">
        <ele>76.400001525879</ele>
        <time>2021-12-31T11:15:20Z</time>
      </trkpt>
      <trkpt lat="43.20425" lon="5.45043">
        <ele>78.199996948242</ele>
        <time>2021-12-31T11:15:38Z</time>
      </trkpt>
      <trkpt lat="43.20431" lon="5.45024">
        <ele>80.199996948242</ele>
        <time>2021-12-31T11:15:56Z</time>
      </trkpt>
      <trkpt lat="43.20439" lon="5.45012">
        <ele>81</ele>
        <time>2021-12-31T11:16:11Z</time>
      </trkpt>
      <trkpt lat="43.20438" lon="5.45012">
        <ele>81.800003051758</ele>
        <time>2021-12-31T11:16:36Z</time>
      </trkpt>
      <trkpt lat="43.20445" lon="5.45006">
        <ele>82.800003051758</ele>
        <time>2021-12-31T11:16:54Z</time>
      </trkpt>
      <trkpt lat="43.20449" lon="5.44999">
        <ele>83.800003051758</ele>
        <time>2021-12-31T11:17:22Z</time>
      </trkpt>
      <trkpt lat="43.20454" lon="5.44988">
        <ele>84.800003051758</ele>
        <time>2021-12-31T11:17:43Z</time>
      </trkpt>
      <trkpt lat="43.20464" lon="5.44972">
        <ele>88</ele>
        <time>2021-12-31T11:18:07Z</time>
      </trkpt>
      <trkpt lat="43.20468" lon="5.44955">
        <ele>90</ele>
        <time>2021-12-31T11:18:29Z</time>
      </trkpt>
      <trkpt lat="43.20472" lon="5.44935">
        <ele>91.800003051758</ele>
        <time>2021-12-31T11:18:49Z</time>
      </trkpt>
      <trkpt lat="43.20473" lon="5.44914">
        <ele>94.400001525879</ele>
        <time>2021-12-31T11:19:11Z</time>
      </trkpt>
      <trkpt lat="43.20473" lon="5.449">
        <ele>97.199996948242</ele>
        <time>2021-12-31T11:19:31Z</time>
      </trkpt>
      <trkpt lat="43.20474" lon="5.44882">
        <ele>99</ele>
        <time>2021-12-31T11:19:51Z</time>
      </trkpt>
      <trkpt lat="43.20473" lon="5.44866">
        <ele>100.40000152588</ele>
        <time>2021-12-31T11:20:05Z</time>
      </trkpt>
      <trkpt lat="43.20473" lon="5.44848">
        <ele>102.40000152588</ele>
        <time>2021-12-31T11:20:22Z</time>
      </trkpt>
      <trkpt lat="43.20481" lon="5.44826">
        <ele>104.59999847412</ele>
        <time>2021-12-31T11:20:42Z</time>
      </trkpt>
      <trkpt lat="43.20484" lon="5.4482">
        <ele>104.59999847412</ele>
        <time>2021-12-31T11:20:47Z</time>
      </trkpt>
      <trkpt lat="43.20489" lon="5.44813">
        <ele>104.59999847412</ele>
        <time>2021-12-31T11:20:54Z</time>
      </trkpt>
      <trkpt lat="43.20498" lon="5.44808">
        <ele>104.59999847412</ele>
        <time>2021-12-31T11:21:15Z</time>
      </trkpt>
      <trkpt lat="43.20511" lon="5.44801">
        <ele>105.59999847412</ele>
        <time>2021-12-31T11:21:34Z</time>
      </trkpt>
      <trkpt lat="43.20525" lon="5.448">
        <ele>104.80000305176</ele>
        <time>2021-12-31T11:21:54Z</time>
      </trkpt>
      <trkpt lat="43.20534" lon="5.448">
        <ele>101.80000305176</ele>
        <time>2021-12-31T11:22:16Z</time>
      </trkpt>
      <trkpt lat="43.20547" lon="5.44788">
        <ele>99.400001525879</ele>
        <time>2021-12-31T11:22:36Z</time>
      </trkpt>
      <trkpt lat="43.20566" lon="5.44784">
        <ele>99.199996948242</ele>
        <time>2021-12-31T11:23:00Z</time>
      </trkpt>
      <trkpt lat="43.20579" lon="5.4478">
        <ele>98</ele>
        <time>2021-12-31T11:23:21Z</time>
      </trkpt>
      <trkpt lat="43.20592" lon="5.44772">
        <ele>95.400001525879</ele>
        <time>2021-12-31T11:23:37Z</time>
      </trkpt>
      <trkpt lat="43.20604" lon="5.44764">
        <ele>93</ele>
        <time>2021-12-31T11:23:57Z</time>
      </trkpt>
      <trkpt lat="43.2062" lon="5.44753">
        <ele>90.599998474121</ele>
        <time>2021-12-31T11:24:15Z</time>
      </trkpt>
      <trkpt lat="43.20628" lon="5.44732">
        <ele>90.400001525879</ele>
        <time>2021-12-31T11:24:33Z</time>
      </trkpt>
      <trkpt lat="43.20637" lon="5.4473">
        <ele>92.199996948242</ele>
        <time>2021-12-31T11:24:58Z</time>
      </trkpt>
      <trkpt lat="43.20643" lon="5.44715">
        <ele>93.400001525879</ele>
        <time>2021-12-31T11:25:18Z</time>
      </trkpt>
      <trkpt lat="43.20647" lon="5.44691">
        <ele>95.599998474121</ele>
        <time>2021-12-31T11:25:42Z</time>
      </trkpt>
      <trkpt lat="43.20643" lon="5.44673">
        <ele>96.199996948242</ele>
        <time>2021-12-31T11:25:58Z</time>
      </trkpt>
      <trkpt lat="43.20641" lon="5.44656">
        <ele>96.800003051758</ele>
        <time>2021-12-31T11:26:16Z</time>
      </trkpt>
      <trkpt lat="43.20642" lon="5.44634">
        <ele>97.400001525879</ele>
        <time>2021-12-31T11:26:37Z</time>
      </trkpt>
      <trkpt lat="43.20641" lon="5.44606">
        <ele>98.199996948242</ele>
        <time>2021-12-31T11:27:01Z</time>
      </trkpt>
      <trkpt lat="43.20639" lon="5.44585">
        <ele>98.599998474121</ele>
        <time>2021-12-31T11:27:19Z</time>
      </trkpt>
      <trkpt lat="43.20635" lon="5.44565">
        <ele>101.59999847412</ele>
        <time>2021-12-31T11:27:45Z</time>
      </trkpt>
      <trkpt lat="43.20639" lon="5.44563">
        <ele>104.80000305176</ele>
        <time>2021-12-31T11:28:00Z</time>
      </trkpt>
      <trkpt lat="43.20641" lon="5.44554">
        <ele>108</ele>
        <time>2021-12-31T11:28:18Z</time>
      </trkpt>
      <trkpt lat="43.20644" lon="5.4455">
        <ele>111</ele>
        <time>2021-12-31T11:28:34Z</time>
      </trkpt>
      <trkpt lat="43.20645" lon="5.44539">
        <ele>114</ele>
        <time>2021-12-31T11:28:52Z</time>
      </trkpt>
      <trkpt lat="43.20642" lon="5.44523">
        <ele>117.19999694824</ele>
        <time>2021-12-31T11:29:12Z</time>
      </trkpt>
      <trkpt lat="43.20642" lon="5.44517">
        <ele>119.40000152588</ele>
        <time>2021-12-31T11:29:32Z</time>
      </trkpt>
      <trkpt lat="43.20644" lon="5.44509">
        <ele>122.59999847412</ele>
        <time>2021-12-31T11:29:52Z</time>
      </trkpt>
      <trkpt lat="43.20651" lon="5.44505">
        <ele>125.40000152588</ele>
        <time>2021-12-31T11:30:09Z</time>
      </trkpt>
      <trkpt lat="43.20653" lon="5.44499">
        <ele>128.60000610352</ele>
        <time>2021-12-31T11:30:29Z</time>
      </trkpt>
      <trkpt lat="43.20655" lon="5.4449">
        <ele>131.60000610352</ele>
        <time>2021-12-31T11:30:46Z</time>
      </trkpt>
      <trkpt lat="43.20659" lon="5.44485">
        <ele>134.60000610352</ele>
        <time>2021-12-31T11:31:02Z</time>
      </trkpt>
      <trkpt lat="43.2066" lon="5.44478">
        <ele>137</ele>
        <time>2021-12-31T11:31:23Z</time>
      </trkpt>
      <trkpt lat="43.20662" lon="5.44478">
        <ele>139.19999694824</ele>
        <time>2021-12-31T11:31:39Z</time>
      </trkpt>
      <trkpt lat="43.20668" lon="5.44477">
        <ele>141.19999694824</ele>
        <time>2021-12-31T11:32:07Z</time>
      </trkpt>
      <trkpt lat="43.20674" lon="5.44476">
        <ele>144.39999389648</ele>
        <time>2021-12-31T11:32:24Z</time>
      </trkpt>
      <trkpt lat="43.20674" lon="5.4447">
        <ele>147.39999389648</ele>
        <time>2021-12-31T11:32:42Z</time>
      </trkpt>
      <trkpt lat="43.20672" lon="5.44457">
        <ele>150.39999389648</ele>
        <time>2021-12-31T11:33:16Z</time>
      </trkpt>
      <trkpt lat="43.20676" lon="5.44451">
        <ele>153.39999389648</ele>
        <time>2021-12-31T11:33:34Z</time>
      </trkpt>
      <trkpt lat="43.20678" lon="5.44443">
        <ele>156.39999389648</ele>
        <time>2021-12-31T11:33:53Z</time>
      </trkpt>
      <trkpt lat="43.20678" lon="5.44436">
        <ele>159.60000610352</ele>
        <time>2021-12-31T11:34:13Z</time>
      </trkpt>
      <trkpt lat="43.20681" lon="5.44425">
        <ele>162.60000610352</ele>
        <time>2021-12-31T11:34:32Z</time>
      </trkpt>
      <trkpt lat="43.20686" lon="5.44422">
        <ele>165.80000305176</ele>
        <time>2021-12-31T11:34:52Z</time>
      </trkpt>
      <trkpt lat="43.20691" lon="5.4442">
        <ele>168.80000305176</ele>
        <time>2021-12-31T11:35:09Z</time>
      </trkpt>
      <trkpt lat="43.20687" lon="5.44425">
        <ele>168.80000305176</ele>
        <time>2021-12-31T11:35:48Z</time>
      </trkpt>
      <trkpt lat="43.2069" lon="5.44424">
        <ele>169.60000610352</ele>
        <time>2021-12-31T11:36:08Z</time>
      </trkpt>
      <trkpt lat="43.20696" lon="5.44421">
        <ele>172.80000305176</ele>
        <time>2021-12-31T11:36:31Z</time>
      </trkpt>
      <trkpt lat="43.207" lon="5.4442">
        <ele>175.80000305176</ele>
        <time>2021-12-31T11:36:49Z</time>
      </trkpt>
      <trkpt lat="43.20705" lon="5.44408">
        <ele>179</ele>
        <time>2021-12-31T11:37:12Z</time>
      </trkpt>
      <trkpt lat="43.20706" lon="5.44398">
        <ele>181.80000305176</ele>
        <time>2021-12-31T11:37:33Z</time>
      </trkpt>
      <trkpt lat="43.20707" lon="5.44391">
        <ele>184.80000305176</ele>
        <time>2021-12-31T11:37:51Z</time>
      </trkpt>
      <trkpt lat="43.2071" lon="5.44386">
        <ele>188</ele>
        <time>2021-12-31T11:38:04Z</time>
      </trkpt>
      <trkpt lat="43.20715" lon="5.44388">
        <ele>191.19999694824</ele>
        <time>2021-12-31T11:38:19Z</time>
      </trkpt>
      <trkpt lat="43.2072" lon="5.44386">
        <ele>194.19999694824</ele>
        <time>2021-12-31T11:38:38Z</time>
      </trkpt>
      <trkpt lat="43.20721" lon="5.44372">
        <ele>197.19999694824</ele>
        <time>2021-12-31T11:38:59Z</time>
      </trkpt>
      <trkpt lat="43.20716" lon="5.44372">
        <ele>200.19999694824</ele>
        <time>2021-12-31T11:39:22Z</time>
      </trkpt>
      <trkpt lat="43.2072" lon="5.44369">
        <ele>201.60000610352</ele>
        <time>2021-12-31T11:39:43Z</time>
      </trkpt>
      <trkpt lat="43.20724" lon="5.44365">
        <ele>204.80000305176</ele>
        <time>2021-12-31T11:40:03Z</time>
      </trkpt>
      <trkpt lat="43.20732" lon="5.44368">
        <ele>208</ele>
        <time>2021-12-31T11:40:19Z</time>
      </trkpt>
      <trkpt lat="43.20736" lon="5.44365">
        <ele>211</ele>
        <time>2021-12-31T11:40:37Z</time>
      </trkpt>
      <trkpt lat="43.20745" lon="5.44365">
        <ele>214.19999694824</ele>
        <time>2021-12-31T11:40:57Z</time>
      </trkpt>
      <trkpt lat="43.20751" lon="5.44367">
        <ele>217</ele>
        <time>2021-12-31T11:41:20Z</time>
      </trkpt>
      <trkpt lat="43.20757" lon="5.44372">
        <ele>220.19999694824</ele>
        <time>2021-12-31T11:41:41Z</time>
      </trkpt>
      <trkpt lat="43.20763" lon="5.44378">
        <ele>221.60000610352</ele>
        <time>2021-12-31T11:42:03Z</time>
      </trkpt>
      <trkpt lat="43.2077" lon="5.4438">
        <ele>224.60000610352</ele>
        <time>2021-12-31T11:42:17Z</time>
      </trkpt>
      <trkpt lat="43.20777" lon="5.44377">
        <ele>227</ele>
        <time>2021-12-31T11:42:39Z</time>
      </trkpt>
      <trkpt lat="43.20787" lon="5.44363">
        <ele>227.19999694824</ele>
        <time>2021-12-31T11:43:03Z</time>
      </trkpt>
      <trkpt lat="43.20796" lon="5.44348">
        <ele>230.19999694824</ele>
        <time>2021-12-31T11:43:29Z</time>
      </trkpt>
      <trkpt lat="43.20799" lon="5.44344">
        <ele>233.19999694824</ele>
        <time>2021-12-31T11:43:45Z</time>
      </trkpt>
      <trkpt lat="43.20805" lon="5.44346">
        <ele>234.19999694824</ele>
        <time>2021-12-31T11:44:02Z</time>
      </trkpt>
      <trkpt lat="43.20816" lon="5.44347">
        <ele>235.19999694824</ele>
        <time>2021-12-31T11:44:18Z</time>
      </trkpt>
      <trkpt lat="43.20819" lon="5.4435">
        <ele>235.80000305176</ele>
        <time>2021-12-31T11:44:33Z</time>
      </trkpt>
      <trkpt lat="43.20818" lon="5.44353">
        <ele>235.19999694824</ele>
        <time>2021-12-31T11:44:57Z</time>
      </trkpt>
      <trkpt lat="43.20817" lon="5.44352">
        <ele>235.39999389648</ele>
        <time>2021-12-31T11:45:49Z</time>
      </trkpt>
      <trkpt lat="43.20816" lon="5.44361">
        <ele>234.60000610352</ele>
        <time>2021-12-31T11:46:07Z</time>
      </trkpt>
      <trkpt lat="43.20818" lon="5.4436">
        <ele>234.19999694824</ele>
        <time>2021-12-31T11:46:21Z</time>
      </trkpt>
      <trkpt lat="43.20816" lon="5.44356">
        <ele>234.39999389648</ele>
        <time>2021-12-31T11:47:01Z</time>
      </trkpt>
      <trkpt lat="43.20818" lon="5.4435">
        <ele>235.19999694824</ele>
        <time>2021-12-31T11:47:25Z</time>
      </trkpt>
      <trkpt lat="43.20817" lon="5.44357">
        <ele>235</ele>
        <time>2021-12-31T11:48:16Z</time>
      </trkpt>
      <trkpt lat="43.20818" lon="5.44355">
        <ele>235</ele>
        <time>2021-12-31T11:49:13Z</time>
      </trkpt>
      <trkpt lat="43.20817" lon="5.44339">
        <ele>235.39999389648</ele>
        <time>2021-12-31T11:49:35Z</time>
      </trkpt>
      <trkpt lat="43.20818" lon="5.44334">
        <ele>233.60000610352</ele>
        <time>2021-12-31T11:49:56Z</time>
      </trkpt>
      <trkpt lat="43.20828" lon="5.44335">
        <ele>233.39999389648</ele>
        <time>2021-12-31T11:50:10Z</time>
      </trkpt>
      <trkpt lat="43.2084" lon="5.4433">
        <ele>232.39999389648</ele>
        <time>2021-12-31T11:50:28Z</time>
      </trkpt>
      <trkpt lat="43.2084" lon="5.44328">
        <ele>231.39999389648</ele>
        <time>2021-12-31T11:50:38Z</time>
      </trkpt>
      <trkpt lat="43.20847" lon="5.44318">
        <ele>230.39999389648</ele>
        <time>2021-12-31T11:50:52Z</time>
      </trkpt>
      <trkpt lat="43.20857" lon="5.44305">
        <ele>227.39999389648</ele>
        <time>2021-12-31T11:51:10Z</time>
      </trkpt>
      <trkpt lat="43.20866" lon="5.44299">
        <ele>225.80000305176</ele>
        <time>2021-12-31T11:51:24Z</time>
      </trkpt>
      <trkpt lat="43.20874" lon="5.44288">
        <ele>223.39999389648</ele>
        <time>2021-12-31T11:51:39Z</time>
      </trkpt>
      <trkpt lat="43.20878" lon="5.44279">
        <ele>222.39999389648</ele>
        <time>2021-12-31T11:51:50Z</time>
      </trkpt>
      <trkpt lat="43.20887" lon="5.44269">
        <ele>221.19999694824</ele>
        <time>2021-12-31T11:52:04Z</time>
      </trkpt>
      <trkpt lat="43.20888" lon="5.44268">
        <ele>221.19999694824</ele>
        <time>2021-12-31T11:52:05Z</time>
      </trkpt>
      <trkpt lat="43.20893" lon="5.4426">
        <ele>220.60000610352</ele>
        <time>2021-12-31T11:52:13Z</time>
      </trkpt>
      <trkpt lat="43.20897" lon="5.44241">
        <ele>221.39999389648</ele>
        <time>2021-12-31T11:52:33Z</time>
      </trkpt>
      <trkpt lat="43.209" lon="5.44225">
        <ele>222.80000305176</ele>
        <time>2021-12-31T11:52:55Z</time>
      </trkpt>
      <trkpt lat="43.20902" lon="5.44209">
        <ele>224.60000610352</ele>
        <time>2021-12-31T11:53:18Z</time>
      </trkpt>
      <trkpt lat="43.20906" lon="5.44191">
        <ele>225.80000305176</ele>
        <time>2021-12-31T11:53:37Z</time>
      </trkpt>
      <trkpt lat="43.20911" lon="5.44172">
        <ele>229</ele>
        <time>2021-12-31T11:54:00Z</time>
      </trkpt>
      <trkpt lat="43.20911" lon="5.44171">
        <ele>229</ele>
        <time>2021-12-31T11:54:01Z</time>
      </trkpt>
      <trkpt lat="43.20913" lon="5.44158">
        <ele>230</ele>
        <time>2021-12-31T11:54:12Z</time>
      </trkpt>
      <trkpt lat="43.20914" lon="5.44151">
        <ele>230.19999694824</ele>
        <time>2021-12-31T11:54:18Z</time>
      </trkpt>
      <trkpt lat="43.20919" lon="5.44136">
        <ele>230.19999694824</ele>
        <time>2021-12-31T11:54:34Z</time>
      </trkpt>
      <trkpt lat="43.2093" lon="5.44118">
        <ele>230.80000305176</ele>
        <time>2021-12-31T11:54:55Z</time>
      </trkpt>
      <trkpt lat="43.20933" lon="5.44112">
        <ele>230.80000305176</ele>
        <time>2021-12-31T11:55:00Z</time>
      </trkpt>
      <trkpt lat="43.20944" lon="5.44098">
        <ele>229.60000610352</ele>
        <time>2021-12-31T11:55:14Z</time>
      </trkpt>
      <trkpt lat="43.20958" lon="5.44091">
        <ele>229.80000305176</ele>
        <time>2021-12-31T11:55:30Z</time>
      </trkpt>
      <trkpt lat="43.20962" lon="5.4409">
        <ele>230</ele>
        <time>2021-12-31T11:55:41Z</time>
      </trkpt>
      <trkpt lat="43.20965" lon="5.44085">
        <ele>229.80000305176</ele>
        <time>2021-12-31T11:55:53Z</time>
      </trkpt>
      <trkpt lat="43.20973" lon="5.44071">
        <ele>229.80000305176</ele>
        <time>2021-12-31T11:56:10Z</time>
      </trkpt>
      <trkpt lat="43.20983" lon="5.44057">
        <ele>231.39999389648</ele>
        <time>2021-12-31T11:56:30Z</time>
      </trkpt>
      <trkpt lat="43.20993" lon="5.4405">
        <ele>233.80000305176</ele>
        <time>2021-12-31T11:56:50Z</time>
      </trkpt>
      <trkpt lat="43.21001" lon="5.44037">
        <ele>237</ele>
        <time>2021-12-31T11:57:12Z</time>
      </trkpt>
      <trkpt lat="43.21012" lon="5.44025">
        <ele>239.80000305176</ele>
        <time>2021-12-31T11:57:35Z</time>
      </trkpt>
      <trkpt lat="43.21018" lon="5.44016">
        <ele>241.80000305176</ele>
        <time>2021-12-31T11:57:54Z</time>
      </trkpt>
      <trkpt lat="43.21022" lon="5.44008">
        <ele>244.39999389648</ele>
        <time>2021-12-31T11:58:15Z</time>
      </trkpt>
      <trkpt lat="43.21023" lon="5.44002">
        <ele>244.60000610352</ele>
        <time>2021-12-31T11:58:37Z</time>
      </trkpt>
      <trkpt lat="43.2103" lon="5.43987">
        <ele>246.60000610352</ele>
        <time>2021-12-31T11:58:55Z</time>
      </trkpt>
      <trkpt lat="43.21034" lon="5.43974">
        <ele>248.39999389648</ele>
        <time>2021-12-31T11:59:14Z</time>
      </trkpt>
      <trkpt lat="43.21035" lon="5.43961">
        <ele>249.39999389648</ele>
        <time>2021-12-31T11:59:31Z</time>
      </trkpt>
      <trkpt lat="43.21038" lon="5.43959">
        <ele>249.39999389648</ele>
        <time>2021-12-31T11:59:48Z</time>
      </trkpt>
      <trkpt lat="43.2104" lon="5.43958">
        <ele>249.39999389648</ele>
        <time>2021-12-31T12:00:08Z</time>
      </trkpt>
      <trkpt lat="43.21037" lon="5.43955">
        <ele>249.39999389648</ele>
        <time>2021-12-31T12:00:29Z</time>
      </trkpt>
      <trkpt lat="43.21038" lon="5.4396">
        <ele>249.60000610352</ele>
        <time>2021-12-31T12:00:43Z</time>
      </trkpt>
      <trkpt lat="43.2104" lon="5.43961">
        <ele>249.60000610352</ele>
        <time>2021-12-31T12:01:12Z</time>
      </trkpt>
      <trkpt lat="43.21039" lon="5.43959">
        <ele>249.60000610352</ele>
        <time>2021-12-31T12:02:09Z</time>
      </trkpt>
      <trkpt lat="43.21033" lon="5.43958">
        <ele>248.80000305176</ele>
        <time>2021-12-31T12:02:37Z</time>
      </trkpt>
      <trkpt lat="43.21031" lon="5.43959">
        <ele>248.60000610352</ele>
        <time>2021-12-31T12:03:39Z</time>
      </trkpt>
      <trkpt lat="43.21032" lon="5.43959">
        <ele>248.39999389648</ele>
        <time>2021-12-31T12:04:13Z</time>
      </trkpt>
      <trkpt lat="43.21034" lon="5.43959">
        <ele>248.60000610352</ele>
        <time>2021-12-31T12:05:46Z</time>
      </trkpt>
      <trkpt lat="43.21034" lon="5.43959">
        <ele>249</ele>
        <time>2021-12-31T12:07:07Z</time>
      </trkpt>
      <trkpt lat="43.21034" lon="5.43958">
        <ele>249.39999389648</ele>
        <time>2021-12-31T12:08:50Z</time>
      </trkpt>
      <trkpt lat="43.21034" lon="5.43958">
        <ele>249.19999694824</ele>
        <time>2021-12-31T12:09:59Z</time>
      </trkpt>
      <trkpt lat="43.21033" lon="5.43959">
        <ele>249.39999389648</ele>
        <time>2021-12-31T12:10:58Z</time>
      </trkpt>
      <trkpt lat="43.21034" lon="5.43957">
        <ele>249.60000610352</ele>
        <time>2021-12-31T12:11:54Z</time>
      </trkpt>
      <trkpt lat="43.21035" lon="5.43956">
        <ele>249.60000610352</ele>
        <time>2021-12-31T12:13:23Z</time>
      </trkpt>
      <trkpt lat="43.21035" lon="5.43956">
        <ele>249.60000610352</ele>
        <time>2021-12-31T12:14:02Z</time>
      </trkpt>
      <trkpt lat="43.21035" lon="5.43955">
        <ele>249.39999389648</ele>
        <time>2021-12-31T12:15:17Z</time>
      </trkpt>
      <trkpt lat="43.2104" lon="5.43955">
        <ele>249.80000305176</ele>
        <time>2021-12-31T12:16:54Z</time>
      </trkpt>
      <trkpt lat="43.21042" lon="5.43956">
        <ele>249.60000610352</ele>
        <time>2021-12-31T12:18:28Z</time>
      </trkpt>
      <trkpt lat="43.21039" lon="5.43956">
        <ele>249.80000305176</ele>
        <time>2021-12-31T12:19:52Z</time>
      </trkpt>
      <trkpt lat="43.2104" lon="5.43956">
        <ele>250</ele>
        <time>2021-12-31T12:21:07Z</time>
      </trkpt>
      <trkpt lat="43.21041" lon="5.43956">
        <ele>250.19999694824</ele>
        <time>2021-12-31T12:22:24Z</time>
      </trkpt>
      <trkpt lat="43.21042" lon="5.43956">
        <ele>250.19999694824</ele>
        <time>2021-12-31T12:24:08Z</time>
      </trkpt>
      <trkpt lat="43.21034" lon="5.43959">
        <ele>250.80000305176</ele>
        <time>2021-12-31T12:27:31Z</time>
      </trkpt>
      <trkpt lat="43.21034" lon="5.43958">
        <ele>250.80000305176</ele>
        <time>2021-12-31T12:28:04Z</time>
      </trkpt>
      <trkpt lat="43.21037" lon="5.43957">
        <ele>250.80000305176</ele>
        <time>2021-12-31T12:29:26Z</time>
      </trkpt>
      <trkpt lat="43.21041" lon="5.43951">
        <ele>251</ele>
        <time>2021-12-31T12:30:08Z</time>
      </trkpt>
      <trkpt lat="43.21047" lon="5.43939">
        <ele>248.60000610352</ele>
        <time>2021-12-31T12:30:31Z</time>
      </trkpt>
      <trkpt lat="43.21053" lon="5.43924">
        <ele>246</ele>
        <time>2021-12-31T12:30:51Z</time>
      </trkpt>
      <trkpt lat="43.21053" lon="5.43917">
        <ele>245.19999694824</ele>
        <time>2021-12-31T12:30:57Z</time>
      </trkpt>
      <trkpt lat="43.21051" lon="5.43897">
        <ele>244.19999694824</ele>
        <time>2021-12-31T12:31:13Z</time>
      </trkpt>
      <trkpt lat="43.21053" lon="5.4388">
        <ele>244.39999389648</ele>
        <time>2021-12-31T12:31:27Z</time>
      </trkpt>
      <trkpt lat="43.21058" lon="5.43862">
        <ele>243.39999389648</ele>
        <time>2021-12-31T12:31:42Z</time>
      </trkpt>
      <trkpt lat="43.21065" lon="5.4384">
        <ele>242.80000305176</ele>
        <time>2021-12-31T12:32:00Z</time>
      </trkpt>
      <trkpt lat="43.21072" lon="5.43822">
        <ele>242.39999389648</ele>
        <time>2021-12-31T12:32:15Z</time>
      </trkpt>
      <trkpt lat="43.21083" lon="5.43801">
        <ele>241.80000305176</ele>
        <time>2021-12-31T12:32:32Z</time>
      </trkpt>
      <trkpt lat="43.21093" lon="5.43786">
        <ele>242.39999389648</ele>
        <time>2021-12-31T12:32:49Z</time>
      </trkpt>
      <trkpt lat="43.21092" lon="5.43784">
        <ele>243.39999389648</ele>
        <time>2021-12-31T12:33:10Z</time>
      </trkpt>
      <trkpt lat="43.21101" lon="5.43771">
        <ele>243.39999389648</ele>
        <time>2021-12-31T12:33:47Z</time>
      </trkpt>
      <trkpt lat="43.21117" lon="5.43762">
        <ele>240.80000305176</ele>
        <time>2021-12-31T12:34:10Z</time>
      </trkpt>
      <trkpt lat="43.21137" lon="5.43755">
        <ele>240.60000610352</ele>
        <time>2021-12-31T12:34:33Z</time>
      </trkpt>
      <trkpt lat="43.21151" lon="5.43752">
        <ele>242.19999694824</ele>
        <time>2021-12-31T12:34:53Z</time>
      </trkpt>
      <trkpt lat="43.21164" lon="5.43747">
        <ele>245.19999694824</ele>
        <time>2021-12-31T12:35:13Z</time>
      </trkpt>
      <trkpt lat="43.21178" lon="5.43743">
        <ele>248.19999694824</ele>
        <time>2021-12-31T12:35:35Z</time>
      </trkpt>
      <trkpt lat="43.21179" lon="5.43731">
        <ele>250.80000305176</ele>
        <time>2021-12-31T12:35:55Z</time>
      </trkpt>
      <trkpt lat="43.21171" lon="5.43712">
        <ele>253.80000305176</ele>
        <time>2021-12-31T12:36:18Z</time>
      </trkpt>
      <trkpt lat="43.21167" lon="5.43697">
        <ele>255.39999389648</ele>
        <time>2021-12-31T12:36:37Z</time>
      </trkpt>
      <trkpt lat="43.21169" lon="5.43681">
        <ele>255.19999694824</ele>
        <time>2021-12-31T12:36:49Z</time>
      </trkpt>
      <trkpt lat="43.21168" lon="5.43652">
        <ele>254.39999389648</ele>
        <time>2021-12-31T12:37:12Z</time>
      </trkpt>
      <trkpt lat="43.2117" lon="5.43627">
        <ele>254.60000610352</ele>
        <time>2021-12-31T12:37:30Z</time>
      </trkpt>
      <trkpt lat="43.21169" lon="5.4362">
        <ele>254.60000610352</ele>
        <time>2021-12-31T12:37:53Z</time>
      </trkpt>
      <trkpt lat="43.21167" lon="5.43624">
        <ele>254.80000305176</ele>
        <time>2021-12-31T12:38:13Z</time>
      </trkpt>
      <trkpt lat="43.21168" lon="5.4362">
        <ele>255.19999694824</ele>
        <time>2021-12-31T12:38:45Z</time>
      </trkpt>
      <trkpt lat="43.21175" lon="5.43603">
        <ele>254.80000305176</ele>
        <time>2021-12-31T12:39:01Z</time>
      </trkpt>
      <trkpt lat="43.2118" lon="5.43592">
        <ele>254.80000305176</ele>
        <time>2021-12-31T12:39:13Z</time>
      </trkpt>
      <trkpt lat="43.2119" lon="5.43573">
        <ele>255.60000610352</ele>
        <time>2021-12-31T12:39:30Z</time>
      </trkpt>
      <trkpt lat="43.21196" lon="5.43557">
        <ele>255.80000305176</ele>
        <time>2021-12-31T12:39:42Z</time>
      </trkpt>
      <trkpt lat="43.21198" lon="5.43554">
        <ele>255.80000305176</ele>
        <time>2021-12-31T12:39:45Z</time>
      </trkpt>
      <trkpt lat="43.21203" lon="5.43548">
        <ele>256.20001220703</ele>
        <time>2021-12-31T12:39:51Z</time>
      </trkpt>
      <trkpt lat="43.21217" lon="5.43536">
        <ele>255.80000305176</ele>
        <time>2021-12-31T12:40:06Z</time>
      </trkpt>
      <trkpt lat="43.21222" lon="5.43534">
        <ele>255.80000305176</ele>
        <time>2021-12-31T12:40:11Z</time>
      </trkpt>
      <trkpt lat="43.21224" lon="5.4353">
        <ele>255.60000610352</ele>
        <time>2021-12-31T12:40:14Z</time>
      </trkpt>
      <trkpt lat="43.21227" lon="5.43527">
        <ele>255.19999694824</ele>
        <time>2021-12-31T12:40:18Z</time>
      </trkpt>
      <trkpt lat="43.21229" lon="5.43524">
        <ele>255.19999694824</ele>
        <time>2021-12-31T12:40:21Z</time>
      </trkpt>
      <trkpt lat="43.21235" lon="5.43513">
        <ele>254.39999389648</ele>
        <time>2021-12-31T12:40:31Z</time>
      </trkpt>
      <trkpt lat="43.21239" lon="5.4351">
        <ele>253.80000305176</ele>
        <time>2021-12-31T12:40:36Z</time>
      </trkpt>
      <trkpt lat="43.21248" lon="5.43502">
        <ele>253</ele>
        <time>2021-12-31T12:40:46Z</time>
      </trkpt>
      <trkpt lat="43.2126" lon="5.43491">
        <ele>252.19999694824</ele>
        <time>2021-12-31T12:40:59Z</time>
      </trkpt>
      <trkpt lat="43.21268" lon="5.43477">
        <ele>251.60000610352</ele>
        <time>2021-12-31T12:41:14Z</time>
      </trkpt>
      <trkpt lat="43.21274" lon="5.43463">
        <ele>250.80000305176</ele>
        <time>2021-12-31T12:41:28Z</time>
      </trkpt>
      <trkpt lat="43.21279" lon="5.43446">
        <ele>250.39999389648</ele>
        <time>2021-12-31T12:41:46Z</time>
      </trkpt>
      <trkpt lat="43.21282" lon="5.43427">
        <ele>249.60000610352</ele>
        <time>2021-12-31T12:42:02Z</time>
      </trkpt>
      <trkpt lat="43.2128" lon="5.43424">
        <ele>249.60000610352</ele>
        <time>2021-12-31T12:42:05Z</time>
      </trkpt>
      <trkpt lat="43.21283" lon="5.43407">
        <ele>248.39999389648</ele>
        <time>2021-12-31T12:42:19Z</time>
      </trkpt>
      <trkpt lat="43.21288" lon="5.4339">
        <ele>249.19999694824</ele>
        <time>2021-12-31T12:42:36Z</time>
      </trkpt>
      <trkpt lat="43.21287" lon="5.4337">
        <ele>249.60000610352</ele>
        <time>2021-12-31T12:42:53Z</time>
      </trkpt>
      <trkpt lat="43.21286" lon="5.4336">
        <ele>249.80000305176</ele>
        <time>2021-12-31T12:43:01Z</time>
      </trkpt>
      <trkpt lat="43.21286" lon="5.43351">
        <ele>249.80000305176</ele>
        <time>2021-12-31T12:43:07Z</time>
      </trkpt>
      <trkpt lat="43.2128" lon="5.43333">
        <ele>250.19999694824</ele>
        <time>2021-12-31T12:43:23Z</time>
      </trkpt>
      <trkpt lat="43.21275" lon="5.43312">
        <ele>250.19999694824</ele>
        <time>2021-12-31T12:43:39Z</time>
      </trkpt>
      <trkpt lat="43.21272" lon="5.43298">
        <ele>251</ele>
        <time>2021-12-31T12:43:52Z</time>
      </trkpt>
      <trkpt lat="43.2127" lon="5.43295">
        <ele>251.19999694824</ele>
        <time>2021-12-31T12:43:55Z</time>
      </trkpt>
      <trkpt lat="43.21263" lon="5.43281">
        <ele>252</ele>
        <time>2021-12-31T12:44:09Z</time>
      </trkpt>
      <trkpt lat="43.21262" lon="5.43277">
        <ele>252.19999694824</ele>
        <time>2021-12-31T12:44:12Z</time>
      </trkpt>
      <trkpt lat="43.21261" lon="5.43255">
        <ele>252.60000610352</ele>
        <time>2021-12-31T12:44:28Z</time>
      </trkpt>
      <trkpt lat="43.21262" lon="5.43237">
        <ele>252.60000610352</ele>
        <time>2021-12-31T12:44:42Z</time>
      </trkpt>
      <trkpt lat="43.21266" lon="5.43216">
        <ele>253</ele>
        <time>2021-12-31T12:45:00Z</time>
      </trkpt>
      <trkpt lat="43.21269" lon="5.43211">
        <ele>253</ele>
        <time>2021-12-31T12:45:05Z</time>
      </trkpt>
      <trkpt lat="43.21275" lon="5.432">
        <ele>253.60000610352</ele>
        <time>2021-12-31T12:45:15Z</time>
      </trkpt>
      <trkpt lat="43.21283" lon="5.43184">
        <ele>253.80000305176</ele>
        <time>2021-12-31T12:45:32Z</time>
      </trkpt>
      <trkpt lat="43.21286" lon="5.43173">
        <ele>254</ele>
        <time>2021-12-31T12:45:49Z</time>
      </trkpt>
      <trkpt lat="43.21289" lon="5.43161">
        <ele>254.80000305176</ele>
        <time>2021-12-31T12:46:03Z</time>
      </trkpt>
      <trkpt lat="43.21294" lon="5.43145">
        <ele>255.39999389648</ele>
        <time>2021-12-31T12:46:18Z</time>
      </trkpt>
      <trkpt lat="43.21296" lon="5.43144">
        <ele>255.19999694824</ele>
        <time>2021-12-31T12:46:20Z</time>
      </trkpt>
      <trkpt lat="43.21299" lon="5.43141">
        <ele>255.19999694824</ele>
        <time>2021-12-31T12:46:23Z</time>
      </trkpt>
      <trkpt lat="43.21307" lon="5.43119">
        <ele>253.80000305176</ele>
        <time>2021-12-31T12:46:42Z</time>
      </trkpt>
      <trkpt lat="43.21315" lon="5.431">
        <ele>254</ele>
        <time>2021-12-31T12:46:58Z</time>
      </trkpt>
      <trkpt lat="43.21324" lon="5.43071">
        <ele>253.39999389648</ele>
        <time>2021-12-31T12:47:19Z</time>
      </trkpt>
      <trkpt lat="43.21327" lon="5.43063">
        <ele>252.60000610352</ele>
        <time>2021-12-31T12:47:26Z</time>
      </trkpt>
      <trkpt lat="43.21333" lon="5.4305">
        <ele>250.60000610352</ele>
        <time>2021-12-31T12:47:40Z</time>
      </trkpt>
      <trkpt lat="43.21342" lon="5.43026">
        <ele>248.60000610352</ele>
        <time>2021-12-31T12:47:58Z</time>
      </trkpt>
      <trkpt lat="43.21343" lon="5.4302">
        <ele>248.60000610352</ele>
        <time>2021-12-31T12:48:04Z</time>
      </trkpt>
      <trkpt lat="43.21354" lon="5.43006">
        <ele>247.80000305176</ele>
        <time>2021-12-31T12:48:23Z</time>
      </trkpt>
      <trkpt lat="43.21355" lon="5.43003">
        <ele>248.19999694824</ele>
        <time>2021-12-31T12:48:27Z</time>
      </trkpt>
      <trkpt lat="43.21363" lon="5.42989">
        <ele>248.80000305176</ele>
        <time>2021-12-31T12:48:44Z</time>
      </trkpt>
      <trkpt lat="43.21365" lon="5.42981">
        <ele>249</ele>
        <time>2021-12-31T12:48:57Z</time>
      </trkpt>
      <trkpt lat="43.21365" lon="5.42977">
        <ele>248.80000305176</ele>
        <time>2021-12-31T12:49:01Z</time>
      </trkpt>
      <trkpt lat="43.21369" lon="5.42973">
        <ele>248.19999694824</ele>
        <time>2021-12-31T12:49:06Z</time>
      </trkpt>
      <trkpt lat="43.21375" lon="5.42965">
        <ele>246.19999694824</ele>
        <time>2021-12-31T12:49:19Z</time>
      </trkpt>
      <trkpt lat="43.2138" lon="5.42957">
        <ele>246.19999694824</ele>
        <time>2021-12-31T12:49:36Z</time>
      </trkpt>
      <trkpt lat="43.21387" lon="5.42947">
        <ele>247.39999389648</ele>
        <time>2021-12-31T12:49:53Z</time>
      </trkpt>
      <trkpt lat="43.21389" lon="5.42946">
        <ele>247.80000305176</ele>
        <time>2021-12-31T12:49:57Z</time>
      </trkpt>
      <trkpt lat="43.21394" lon="5.4293">
        <ele>247.39999389648</ele>
        <time>2021-12-31T12:50:14Z</time>
      </trkpt>
      <trkpt lat="43.21402" lon="5.42909">
        <ele>247.60000610352</ele>
        <time>2021-12-31T12:50:32Z</time>
      </trkpt>
      <trkpt lat="43.21406" lon="5.42888">
        <ele>248.39999389648</ele>
        <time>2021-12-31T12:50:52Z</time>
      </trkpt>
      <trkpt lat="43.21414" lon="5.42869">
        <ele>248.39999389648</ele>
        <time>2021-12-31T12:51:13Z</time>
      </trkpt>
      <trkpt lat="43.21418" lon="5.42851">
        <ele>249</ele>
        <time>2021-12-31T12:51:36Z</time>
      </trkpt>
      <trkpt lat="43.21415" lon="5.42836">
        <ele>248.80000305176</ele>
        <time>2021-12-31T12:51:57Z</time>
      </trkpt>
      <trkpt lat="43.21415" lon="5.42826">
        <ele>250.19999694824</ele>
        <time>2021-12-31T12:52:17Z</time>
      </trkpt>
      <trkpt lat="43.21419" lon="5.42813">
        <ele>252.19999694824</ele>
        <time>2021-12-31T12:52:36Z</time>
      </trkpt>
      <trkpt lat="43.21424" lon="5.42802">
        <ele>253.80000305176</ele>
        <time>2021-12-31T12:52:53Z</time>
      </trkpt>
      <trkpt lat="43.21432" lon="5.42791">
        <ele>256.20001220703</ele>
        <time>2021-12-31T12:53:15Z</time>
      </trkpt>
      <trkpt lat="43.21441" lon="5.42782">
        <ele>259.20001220703</ele>
        <time>2021-12-31T12:53:39Z</time>
      </trkpt>
      <trkpt lat="43.21446" lon="5.42771">
        <ele>261.60000610352</ele>
        <time>2021-12-31T12:53:59Z</time>
      </trkpt>
      <trkpt lat="43.21451" lon="5.42765">
        <ele>264.60000610352</ele>
        <time>2021-12-31T12:54:18Z</time>
      </trkpt>
      <trkpt lat="43.2146" lon="5.42758">
        <ele>266</ele>
        <time>2021-12-31T12:54:34Z</time>
      </trkpt>
      <trkpt lat="43.21473" lon="5.42752">
        <ele>267.39999389648</ele>
        <time>2021-12-31T12:54:53Z</time>
      </trkpt>
      <trkpt lat="43.2148" lon="5.42748">
        <ele>269.20001220703</ele>
        <time>2021-12-31T12:55:14Z</time>
      </trkpt>
      <trkpt lat="43.21489" lon="5.42747">
        <ele>270</ele>
        <time>2021-12-31T12:55:32Z</time>
      </trkpt>
      <trkpt lat="43.21493" lon="5.42746">
        <ele>269.79998779297</ele>
        <time>2021-12-31T12:55:37Z</time>
      </trkpt>
      <trkpt lat="43.215" lon="5.42745">
        <ele>268.79998779297</ele>
        <time>2021-12-31T12:55:44Z</time>
      </trkpt>
      <trkpt lat="43.2151" lon="5.42738">
        <ele>267.39999389648</ele>
        <time>2021-12-31T12:56:01Z</time>
      </trkpt>
      <trkpt lat="43.21513" lon="5.42731">
        <ele>267.79998779297</ele>
        <time>2021-12-31T12:56:21Z</time>
      </trkpt>
      <trkpt lat="43.21525" lon="5.42718">
        <ele>268.39999389648</ele>
        <time>2021-12-31T12:56:41Z</time>
      </trkpt>
      <trkpt lat="43.21533" lon="5.42702">
        <ele>270.39999389648</ele>
        <time>2021-12-31T12:57:06Z</time>
      </trkpt>
      <trkpt lat="43.21545" lon="5.42692">
        <ele>273.60000610352</ele>
        <time>2021-12-31T12:57:28Z</time>
      </trkpt>
      <trkpt lat="43.21551" lon="5.42685">
        <ele>276.20001220703</ele>
        <time>2021-12-31T12:57:48Z</time>
      </trkpt>
      <trkpt lat="43.21548" lon="5.42681">
        <ele>278.20001220703</ele>
        <time>2021-12-31T12:58:14Z</time>
      </trkpt>
      <trkpt lat="43.21561" lon="5.42676">
        <ele>278.39999389648</ele>
        <time>2021-12-31T12:58:33Z</time>
      </trkpt>
      <trkpt lat="43.2157" lon="5.42662">
        <ele>279</ele>
        <time>2021-12-31T12:58:51Z</time>
      </trkpt>
      <trkpt lat="43.21578" lon="5.42666">
        <ele>280.60000610352</ele>
        <time>2021-12-31T12:59:11Z</time>
      </trkpt>
      <trkpt lat="43.21586" lon="5.42666">
        <ele>283.60000610352</ele>
        <time>2021-12-31T12:59:33Z</time>
      </trkpt>
      <trkpt lat="43.21593" lon="5.42661">
        <ele>284.60000610352</ele>
        <time>2021-12-31T12:59:53Z</time>
      </trkpt>
      <trkpt lat="43.21596" lon="5.42657">
        <ele>284.39999389648</ele>
        <time>2021-12-31T13:00:05Z</time>
      </trkpt>
      <trkpt lat="43.21603" lon="5.42645">
        <ele>283.20001220703</ele>
        <time>2021-12-31T13:00:20Z</time>
      </trkpt>
      <trkpt lat="43.21607" lon="5.42639">
        <ele>284.20001220703</ele>
        <time>2021-12-31T13:00:35Z</time>
      </trkpt>
      <trkpt lat="43.21614" lon="5.42634">
        <ele>283.39999389648</ele>
        <time>2021-12-31T13:00:51Z</time>
      </trkpt>
      <trkpt lat="43.21621" lon="5.42625">
        <ele>280.79998779297</ele>
        <time>2021-12-31T13:01:09Z</time>
      </trkpt>
      <trkpt lat="43.21628" lon="5.42621">
        <ele>278.60000610352</ele>
        <time>2021-12-31T13:01:25Z</time>
      </trkpt>
      <trkpt lat="43.21636" lon="5.4261">
        <ele>276</ele>
        <time>2021-12-31T13:01:41Z</time>
      </trkpt>
      <trkpt lat="43.21643" lon="5.42598">
        <ele>273</ele>
        <time>2021-12-31T13:01:57Z</time>
      </trkpt>
      <trkpt lat="43.21653" lon="5.4259">
        <ele>270.20001220703</ele>
        <time>2021-12-31T13:02:13Z</time>
      </trkpt>
      <trkpt lat="43.2166" lon="5.42581">
        <ele>268.20001220703</ele>
        <time>2021-12-31T13:02:25Z</time>
      </trkpt>
      <trkpt lat="43.2167" lon="5.42568">
        <ele>266.39999389648</ele>
        <time>2021-12-31T13:02:41Z</time>
      </trkpt>
      <trkpt lat="43.21683" lon="5.42566">
        <ele>265</ele>
        <time>2021-12-31T13:02:54Z</time>
      </trkpt>
      <trkpt lat="43.21693" lon="5.42555">
        <ele>262.39999389648</ele>
        <time>2021-12-31T13:03:14Z</time>
      </trkpt>
      <trkpt lat="43.21694" lon="5.42554">
        <ele>262.20001220703</ele>
        <time>2021-12-31T13:03:32Z</time>
      </trkpt>
      <trkpt lat="43.21703" lon="5.42546">
        <ele>262</ele>
        <time>2021-12-31T13:03:44Z</time>
      </trkpt>
      <trkpt lat="43.21708" lon="5.4254">
        <ele>261.60000610352</ele>
        <time>2021-12-31T13:03:51Z</time>
      </trkpt>
      <trkpt lat="43.21721" lon="5.42529">
        <ele>260.39999389648</ele>
        <time>2021-12-31T13:04:09Z</time>
      </trkpt>
      <trkpt lat="43.21728" lon="5.42524">
        <ele>259</ele>
        <time>2021-12-31T13:04:18Z</time>
      </trkpt>
      <trkpt lat="43.21736" lon="5.42518">
        <ele>257.79998779297</ele>
        <time>2021-12-31T13:04:27Z</time>
      </trkpt>
      <trkpt lat="43.21739" lon="5.42516">
        <ele>257.39999389648</ele>
        <time>2021-12-31T13:04:30Z</time>
      </trkpt>
      <trkpt lat="43.21752" lon="5.42502">
        <ele>255</ele>
        <time>2021-12-31T13:04:47Z</time>
      </trkpt>
      <trkpt lat="43.21767" lon="5.42498">
        <ele>253.80000305176</ele>
        <time>2021-12-31T13:05:04Z</time>
      </trkpt>
      <trkpt lat="43.21784" lon="5.42493">
        <ele>253.60000610352</ele>
        <time>2021-12-31T13:05:18Z</time>
      </trkpt>
      <trkpt lat="43.21804" lon="5.42487">
        <ele>254.19999694824</ele>
        <time>2021-12-31T13:05:35Z</time>
      </trkpt>
      <trkpt lat="43.21815" lon="5.42487">
        <ele>254.39999389648</ele>
        <time>2021-12-31T13:05:46Z</time>
      </trkpt>
      <trkpt lat="43.21829" lon="5.42479">
        <ele>254.39999389648</ele>
        <time>2021-12-31T13:06:01Z</time>
      </trkpt>
      <trkpt lat="43.21843" lon="5.42469">
        <ele>254</ele>
        <time>2021-12-31T13:06:16Z</time>
      </trkpt>
      <trkpt lat="43.21847" lon="5.42454">
        <ele>252.60000610352</ele>
        <time>2021-12-31T13:06:31Z</time>
      </trkpt>
      <trkpt lat="43.21854" lon="5.42431">
        <ele>250.39999389648</ele>
        <time>2021-12-31T13:06:49Z</time>
      </trkpt>
      <trkpt lat="43.2186" lon="5.42414">
        <ele>248.60000610352</ele>
        <time>2021-12-31T13:07:05Z</time>
      </trkpt>
      <trkpt lat="43.21864" lon="5.424">
        <ele>246.80000305176</ele>
        <time>2021-12-31T13:07:22Z</time>
      </trkpt>
      <trkpt lat="43.21872" lon="5.42386">
        <ele>244.19999694824</ele>
        <time>2021-12-31T13:07:43Z</time>
      </trkpt>
      <trkpt lat="43.21879" lon="5.42365">
        <ele>241.19999694824</ele>
        <time>2021-12-31T13:08:04Z</time>
      </trkpt>
      <trkpt lat="43.21886" lon="5.4235">
        <ele>238.60000610352</ele>
        <time>2021-12-31T13:08:24Z</time>
      </trkpt>
      <trkpt lat="43.21892" lon="5.4234">
        <ele>236</ele>
        <time>2021-12-31T13:08:42Z</time>
      </trkpt>
      <trkpt lat="43.21897" lon="5.42334">
        <ele>235.19999694824</ele>
        <time>2021-12-31T13:08:49Z</time>
      </trkpt>
      <trkpt lat="43.21911" lon="5.42321">
        <ele>234.19999694824</ele>
        <time>2021-12-31T13:09:06Z</time>
      </trkpt>
      <trkpt lat="43.21918" lon="5.42315">
        <ele>234.19999694824</ele>
        <time>2021-12-31T13:09:22Z</time>
      </trkpt>
      <trkpt lat="43.21925" lon="5.42305">
        <ele>234.80000305176</ele>
        <time>2021-12-31T13:09:40Z</time>
      </trkpt>
      <trkpt lat="43.21928" lon="5.42298">
        <ele>235.80000305176</ele>
        <time>2021-12-31T13:09:56Z</time>
      </trkpt>
      <trkpt lat="43.21928" lon="5.42299">
        <ele>235.80000305176</ele>
        <time>2021-12-31T13:10:34Z</time>
      </trkpt>
      <trkpt lat="43.21928" lon="5.42292">
        <ele>236.19999694824</ele>
        <time>2021-12-31T13:10:52Z</time>
      </trkpt>
      <trkpt lat="43.21927" lon="5.42291">
        <ele>235.60000610352</ele>
        <time>2021-12-31T13:11:28Z</time>
      </trkpt>
      <trkpt lat="43.21928" lon="5.42292">
        <ele>236</ele>
        <time>2021-12-31T13:12:00Z</time>
      </trkpt>
      <trkpt lat="43.21932" lon="5.4229">
        <ele>236.39999389648</ele>
        <time>2021-12-31T13:12:25Z</time>
      </trkpt>
      <trkpt lat="43.21939" lon="5.42274">
        <ele>237.19999694824</ele>
        <time>2021-12-31T13:12:41Z</time>
      </trkpt>
      <trkpt lat="43.21947" lon="5.4226">
        <ele>238.60000610352</ele>
        <time>2021-12-31T13:12:56Z</time>
      </trkpt>
      <trkpt lat="43.21959" lon="5.42253">
        <ele>239.39999389648</ele>
        <time>2021-12-31T13:13:10Z</time>
      </trkpt>
      <trkpt lat="43.21976" lon="5.42248">
        <ele>241</ele>
        <time>2021-12-31T13:13:27Z</time>
      </trkpt>
      <trkpt lat="43.21988" lon="5.42239">
        <ele>241.60000610352</ele>
        <time>2021-12-31T13:13:42Z</time>
      </trkpt>
      <trkpt lat="43.21995" lon="5.42233">
        <ele>242.19999694824</ele>
        <time>2021-12-31T13:14:03Z</time>
      </trkpt>
      <trkpt lat="43.21994" lon="5.42223">
        <ele>242</ele>
        <time>2021-12-31T13:14:22Z</time>
      </trkpt>
      <trkpt lat="43.21996" lon="5.4223">
        <ele>242.39999389648</ele>
        <time>2021-12-31T13:14:49Z</time>
      </trkpt>
      <trkpt lat="43.22004" lon="5.42228">
        <ele>242.39999389648</ele>
        <time>2021-12-31T13:15:06Z</time>
      </trkpt>
      <trkpt lat="43.22024" lon="5.42222">
        <ele>242.39999389648</ele>
        <time>2021-12-31T13:15:24Z</time>
      </trkpt>
      <trkpt lat="43.22042" lon="5.42217">
        <ele>242.39999389648</ele>
        <time>2021-12-31T13:15:41Z</time>
      </trkpt>
      <trkpt lat="43.22053" lon="5.4221">
        <ele>242.39999389648</ele>
        <time>2021-12-31T13:15:53Z</time>
      </trkpt>
      <trkpt lat="43.22066" lon="5.422">
        <ele>242.39999389648</ele>
        <time>2021-12-31T13:16:07Z</time>
      </trkpt>
      <trkpt lat="43.22086" lon="5.42188">
        <ele>242.19999694824</ele>
        <time>2021-12-31T13:16:29Z</time>
      </trkpt>
      <trkpt lat="43.22106" lon="5.42182">
        <ele>241.19999694824</ele>
        <time>2021-12-31T13:16:50Z</time>
      </trkpt>
      <trkpt lat="43.22128" lon="5.42178">
        <ele>241</ele>
        <time>2021-12-31T13:17:07Z</time>
      </trkpt>
      <trkpt lat="43.22129" lon="5.42178">
        <ele>241</ele>
        <time>2021-12-31T13:17:08Z</time>
      </trkpt>
      <trkpt lat="43.2215" lon="5.42187">
        <ele>240</ele>
        <time>2021-12-31T13:17:28Z</time>
      </trkpt>
      <trkpt lat="43.22163" lon="5.42194">
        <ele>238.60000610352</ele>
        <time>2021-12-31T13:17:43Z</time>
      </trkpt>
      <trkpt lat="43.22178" lon="5.42204">
        <ele>237.60000610352</ele>
        <time>2021-12-31T13:18:02Z</time>
      </trkpt>
      <trkpt lat="43.22189" lon="5.42214">
        <ele>236.19999694824</ele>
        <time>2021-12-31T13:18:17Z</time>
      </trkpt>
      <trkpt lat="43.222" lon="5.42222">
        <ele>234.39999389648</ele>
        <time>2021-12-31T13:18:30Z</time>
      </trkpt>
      <trkpt lat="43.22211" lon="5.42231">
        <ele>231.39999389648</ele>
        <time>2021-12-31T13:18:48Z</time>
      </trkpt>
      <trkpt lat="43.22221" lon="5.42241">
        <ele>228.60000610352</ele>
        <time>2021-12-31T13:19:06Z</time>
      </trkpt>
      <trkpt lat="43.2223" lon="5.42254">
        <ele>225.39999389648</ele>
        <time>2021-12-31T13:19:23Z</time>
      </trkpt>
      <trkpt lat="43.22239" lon="5.42271">
        <ele>222.39999389648</ele>
        <time>2021-12-31T13:19:42Z</time>
      </trkpt>
      <trkpt lat="43.22239" lon="5.42273">
        <ele>222.19999694824</ele>
        <time>2021-12-31T13:19:44Z</time>
      </trkpt>
      <trkpt lat="43.22242" lon="5.4228">
        <ele>221.80000305176</ele>
        <time>2021-12-31T13:19:49Z</time>
      </trkpt>
      <trkpt lat="43.22253" lon="5.42293">
        <ele>219.60000610352</ele>
        <time>2021-12-31T13:20:04Z</time>
      </trkpt>
      <trkpt lat="43.22266" lon="5.42306">
        <ele>219</ele>
        <time>2021-12-31T13:20:19Z</time>
      </trkpt>
      <trkpt lat="43.22277" lon="5.42317">
        <ele>219.80000305176</ele>
        <time>2021-12-31T13:20:33Z</time>
      </trkpt>
      <trkpt lat="43.22278" lon="5.42318">
        <ele>220.80000305176</ele>
        <time>2021-12-31T13:21:00Z</time>
      </trkpt>
      <trkpt lat="43.22275" lon="5.42326">
        <ele>221</ele>
        <time>2021-12-31T13:21:52Z</time>
      </trkpt>
      <trkpt lat="43.22281" lon="5.42347">
        <ele>219.60000610352</ele>
        <time>2021-12-31T13:22:10Z</time>
      </trkpt>
      <trkpt lat="43.22282" lon="5.42364">
        <ele>221.19999694824</ele>
        <time>2021-12-31T13:22:25Z</time>
      </trkpt>
      <trkpt lat="43.22287" lon="5.42381">
        <ele>220.19999694824</ele>
        <time>2021-12-31T13:22:42Z</time>
      </trkpt>
      <trkpt lat="43.22288" lon="5.42385">
        <ele>220</ele>
        <time>2021-12-31T13:22:44Z</time>
      </trkpt>
      <trkpt lat="43.22298" lon="5.42404">
        <ele>219.60000610352</ele>
        <time>2021-12-31T13:23:00Z</time>
      </trkpt>
      <trkpt lat="43.22306" lon="5.42419">
        <ele>218.60000610352</ele>
        <time>2021-12-31T13:23:15Z</time>
      </trkpt>
      <trkpt lat="43.22315" lon="5.42434">
        <ele>217.39999389648</ele>
        <time>2021-12-31T13:23:29Z</time>
      </trkpt>
      <trkpt lat="43.22318" lon="5.42437">
        <ele>216.19999694824</ele>
        <time>2021-12-31T13:23:49Z</time>
      </trkpt>
      <trkpt lat="43.22321" lon="5.4244">
        <ele>216</ele>
        <time>2021-12-31T13:24:30Z</time>
      </trkpt>
      <trkpt lat="43.22326" lon="5.42445">
        <ele>215</ele>
        <time>2021-12-31T13:24:46Z</time>
      </trkpt>
      <trkpt lat="43.22332" lon="5.42455">
        <ele>212</ele>
        <time>2021-12-31T13:25:07Z</time>
      </trkpt>
      <trkpt lat="43.22336" lon="5.42462">
        <ele>210.39999389648</ele>
        <time>2021-12-31T13:25:13Z</time>
      </trkpt>
      <trkpt lat="43.22339" lon="5.42465">
        <ele>209.60000610352</ele>
        <time>2021-12-31T13:25:16Z</time>
      </trkpt>
      <trkpt lat="43.2234" lon="5.42474">
        <ele>208.39999389648</ele>
        <time>2021-12-31T13:25:22Z</time>
      </trkpt>
      <trkpt lat="43.22343" lon="5.42497">
        <ele>207.19999694824</ele>
        <time>2021-12-31T13:25:37Z</time>
      </trkpt>
      <trkpt lat="43.22341" lon="5.42511">
        <ele>209.39999389648</ele>
        <time>2021-12-31T13:25:54Z</time>
      </trkpt>
      <trkpt lat="43.22342" lon="5.42522">
        <ele>211.80000305176</ele>
        <time>2021-12-31T13:26:13Z</time>
      </trkpt>
      <trkpt lat="43.22337" lon="5.42529">
        <ele>212.60000610352</ele>
        <time>2021-12-31T13:26:37Z</time>
      </trkpt>
      <trkpt lat="43.22331" lon="5.42533">
        <ele>214.60000610352</ele>
        <time>2021-12-31T13:26:55Z</time>
      </trkpt>
      <trkpt lat="43.22325" lon="5.42555">
        <ele>212.80000305176</ele>
        <time>2021-12-31T13:27:15Z</time>
      </trkpt>
      <trkpt lat="43.22322" lon="5.42572">
        <ele>212.39999389648</ele>
        <time>2021-12-31T13:27:29Z</time>
      </trkpt>
      <trkpt lat="43.22321" lon="5.42574">
        <ele>212.39999389648</ele>
        <time>2021-12-31T13:27:31Z</time>
      </trkpt>
      <trkpt lat="43.22313" lon="5.42593">
        <ele>212.80000305176</ele>
        <time>2021-12-31T13:27:49Z</time>
      </trkpt>
      <trkpt lat="43.22304" lon="5.42599">
        <ele>215.80000305176</ele>
        <time>2021-12-31T13:28:05Z</time>
      </trkpt>
      <trkpt lat="43.22297" lon="5.426">
        <ele>219</ele>
        <time>2021-12-31T13:28:19Z</time>
      </trkpt>
      <trkpt lat="43.22288" lon="5.42609">
        <ele>222.19999694824</ele>
        <time>2021-12-31T13:28:37Z</time>
      </trkpt>
      <trkpt lat="43.22283" lon="5.42617">
        <ele>223.60000610352</ele>
        <time>2021-12-31T13:29:00Z</time>
      </trkpt>
      <trkpt lat="43.22277" lon="5.42632">
        <ele>221.80000305176</ele>
        <time>2021-12-31T13:29:17Z</time>
      </trkpt>
      <trkpt lat="43.22274" lon="5.4265">
        <ele>219</ele>
        <time>2021-12-31T13:29:37Z</time>
      </trkpt>
      <trkpt lat="43.22251" lon="5.4265">
        <ele>217.19999694824</ele>
        <time>2021-12-31T13:29:57Z</time>
      </trkpt>
      <trkpt lat="43.22237" lon="5.42654">
        <ele>219</ele>
        <time>2021-12-31T13:30:15Z</time>
      </trkpt>
      <trkpt lat="43.22224" lon="5.4266">
        <ele>222.19999694824</ele>
        <time>2021-12-31T13:30:38Z</time>
      </trkpt>
      <trkpt lat="43.22218" lon="5.42658">
        <ele>223.19999694824</ele>
        <time>2021-12-31T13:30:44Z</time>
      </trkpt>
      <trkpt lat="43.22201" lon="5.42657">
        <ele>223.60000610352</ele>
        <time>2021-12-31T13:31:03Z</time>
      </trkpt>
      <trkpt lat="43.22192" lon="5.4267">
        <ele>224</ele>
        <time>2021-12-31T13:31:24Z</time>
      </trkpt>
      <trkpt lat="43.22193" lon="5.42674">
        <ele>223.80000305176</ele>
        <time>2021-12-31T13:31:51Z</time>
      </trkpt>
      <trkpt lat="43.22192" lon="5.42676">
        <ele>223.80000305176</ele>
        <time>2021-12-31T13:32:09Z</time>
      </trkpt>
      <trkpt lat="43.22193" lon="5.4269">
        <ele>223.60000610352</ele>
        <time>2021-12-31T13:32:25Z</time>
      </trkpt>
      <trkpt lat="43.22193" lon="5.427">
        <ele>222.19999694824</ele>
        <time>2021-12-31T13:32:34Z</time>
      </trkpt>
      <trkpt lat="43.22197" lon="5.42718">
        <ele>220.39999389648</ele>
        <time>2021-12-31T13:32:50Z</time>
      </trkpt>
      <trkpt lat="43.22197" lon="5.42722">
        <ele>220</ele>
        <time>2021-12-31T13:32:53Z</time>
      </trkpt>
      <trkpt lat="43.22205" lon="5.42743">
        <ele>218.39999389648</ele>
        <time>2021-12-31T13:33:09Z</time>
      </trkpt>
      <trkpt lat="43.2221" lon="5.42765">
        <ele>215.80000305176</ele>
        <time>2021-12-31T13:33:30Z</time>
      </trkpt>
      <trkpt lat="43.22216" lon="5.42778">
        <ele>215.19999694824</ele>
        <time>2021-12-31T13:33:41Z</time>
      </trkpt>
      <trkpt lat="43.22209" lon="5.4279">
        <ele>214.39999389648</ele>
        <time>2021-12-31T13:33:57Z</time>
      </trkpt>
      <trkpt lat="43.22192" lon="5.42804">
        <ele>213.60000610352</ele>
        <time>2021-12-31T13:34:17Z</time>
      </trkpt>
      <trkpt lat="43.22177" lon="5.42801">
        <ele>215.19999694824</ele>
        <time>2021-12-31T13:34:36Z</time>
      </trkpt>
      <trkpt lat="43.2216" lon="5.42807">
        <ele>216.60000610352</ele>
        <time>2021-12-31T13:34:59Z</time>
      </trkpt>
      <trkpt lat="43.22151" lon="5.42813">
        <ele>216.80000305176</ele>
        <time>2021-12-31T13:35:13Z</time>
      </trkpt>
      <trkpt lat="43.22135" lon="5.42822">
        <ele>217.39999389648</ele>
        <time>2021-12-31T13:35:34Z</time>
      </trkpt>
      <trkpt lat="43.22127" lon="5.42828">
        <ele>218.19999694824</ele>
        <time>2021-12-31T13:35:59Z</time>
      </trkpt>
      <trkpt lat="43.22128" lon="5.42827">
        <ele>218</ele>
        <time>2021-12-31T13:36:20Z</time>
      </trkpt>
      <trkpt lat="43.22131" lon="5.4283">
        <ele>218.39999389648</ele>
        <time>2021-12-31T13:36:47Z</time>
      </trkpt>
      <trkpt lat="43.22128" lon="5.42831">
        <ele>219.80000305176</ele>
        <time>2021-12-31T13:37:07Z</time>
      </trkpt>
      <trkpt lat="43.22128" lon="5.42829">
        <ele>220.39999389648</ele>
        <time>2021-12-31T13:37:39Z</time>
      </trkpt>
      <trkpt lat="43.22129" lon="5.4283">
        <ele>221.19999694824</ele>
        <time>2021-12-31T13:38:25Z</time>
      </trkpt>
      <trkpt lat="43.22129" lon="5.42826">
        <ele>221.19999694824</ele>
        <time>2021-12-31T13:38:59Z</time>
      </trkpt>
      <trkpt lat="43.22125" lon="5.42829">
        <ele>219.80000305176</ele>
        <time>2021-12-31T13:39:21Z</time>
      </trkpt>
      <trkpt lat="43.22115" lon="5.42835">
        <ele>220.19999694824</ele>
        <time>2021-12-31T13:39:39Z</time>
      </trkpt>
      <trkpt lat="43.22113" lon="5.42857">
        <ele>220.39999389648</ele>
        <time>2021-12-31T13:40:01Z</time>
      </trkpt>
      <trkpt lat="43.22117" lon="5.42884">
        <ele>219.39999389648</ele>
        <time>2021-12-31T13:40:25Z</time>
      </trkpt>
      <trkpt lat="43.22123" lon="5.42896">
        <ele>218.39999389648</ele>
        <time>2021-12-31T13:40:48Z</time>
      </trkpt>
      <trkpt lat="43.22124" lon="5.42897">
        <ele>218.39999389648</ele>
        <time>2021-12-31T13:40:49Z</time>
      </trkpt>
      <trkpt lat="43.22136" lon="5.42914">
        <ele>217.19999694824</ele>
        <time>2021-12-31T13:41:07Z</time>
      </trkpt>
      <trkpt lat="43.22148" lon="5.42932">
        <ele>217.39999389648</ele>
        <time>2021-12-31T13:41:28Z</time>
      </trkpt>
      <trkpt lat="43.22147" lon="5.42954">
        <ele>217</ele>
        <time>2021-12-31T13:41:48Z</time>
      </trkpt>
      <trkpt lat="43.22142" lon="5.4296">
        <ele>217.19999694824</ele>
        <time>2021-12-31T13:41:54Z</time>
      </trkpt>
      <trkpt lat="43.2212" lon="5.42983">
        <ele>218.60000610352</ele>
        <time>2021-12-31T13:42:20Z</time>
      </trkpt>
      <trkpt lat="43.22109" lon="5.42995">
        <ele>218.19999694824</ele>
        <time>2021-12-31T13:42:36Z</time>
      </trkpt>
      <trkpt lat="43.22113" lon="5.43015">
        <ele>217.60000610352</ele>
        <time>2021-12-31T13:42:52Z</time>
      </trkpt>
      <trkpt lat="43.22123" lon="5.43031">
        <ele>218</ele>
        <time>2021-12-31T13:43:08Z</time>
      </trkpt>
      <trkpt lat="43.2213" lon="5.43064">
        <ele>220.19999694824</ele>
        <time>2021-12-31T13:43:36Z</time>
      </trkpt>
      <trkpt lat="43.22129" lon="5.4308">
        <ele>221.19999694824</ele>
        <time>2021-12-31T13:43:55Z</time>
      </trkpt>
      <trkpt lat="43.22125" lon="5.43097">
        <ele>220.39999389648</ele>
        <time>2021-12-31T13:44:17Z</time>
      </trkpt>
      <trkpt lat="43.22115" lon="5.43108">
        <ele>217.60000610352</ele>
        <time>2021-12-31T13:44:33Z</time>
      </trkpt>
      <trkpt lat="43.22104" lon="5.431">
        <ele>217.19999694824</ele>
        <time>2021-12-31T13:44:57Z</time>
      </trkpt>
      <trkpt lat="43.22096" lon="5.43105">
        <ele>217.80000305176</ele>
        <time>2021-12-31T13:45:13Z</time>
      </trkpt>
      <trkpt lat="43.2209" lon="5.43114">
        <ele>218.39999389648</ele>
        <time>2021-12-31T13:45:28Z</time>
      </trkpt>
      <trkpt lat="43.22085" lon="5.43127">
        <ele>218.60000610352</ele>
        <time>2021-12-31T13:45:49Z</time>
      </trkpt>
      <trkpt lat="43.22079" lon="5.43144">
        <ele>219.39999389648</ele>
        <time>2021-12-31T13:46:07Z</time>
      </trkpt>
      <trkpt lat="43.22074" lon="5.43146">
        <ele>220.19999694824</ele>
        <time>2021-12-31T13:46:25Z</time>
      </trkpt>
      <trkpt lat="43.22067" lon="5.43146">
        <ele>219</ele>
        <time>2021-12-31T13:46:41Z</time>
      </trkpt>
      <trkpt lat="43.2207" lon="5.43144">
        <ele>217.60000610352</ele>
        <time>2021-12-31T13:46:59Z</time>
      </trkpt>
      <trkpt lat="43.22069" lon="5.43142">
        <ele>217</ele>
        <time>2021-12-31T13:47:15Z</time>
      </trkpt>
      <trkpt lat="43.22066" lon="5.43144">
        <ele>216.19999694824</ele>
        <time>2021-12-31T13:47:31Z</time>
      </trkpt>
      <trkpt lat="43.22066" lon="5.43143">
        <ele>215</ele>
        <time>2021-12-31T13:48:19Z</time>
      </trkpt>
      <trkpt lat="43.22065" lon="5.4314">
        <ele>215</ele>
        <time>2021-12-31T13:49:02Z</time>
      </trkpt>
      <trkpt lat="43.22067" lon="5.43145">
        <ele>215.19999694824</ele>
        <time>2021-12-31T13:49:51Z</time>
      </trkpt>
      <trkpt lat="43.22071" lon="5.43145">
        <ele>217</ele>
        <time>2021-12-31T13:50:28Z</time>
      </trkpt>
      <trkpt lat="43.22071" lon="5.43147">
        <ele>216.60000610352</ele>
        <time>2021-12-31T13:51:00Z</time>
      </trkpt>
      <trkpt lat="43.22071" lon="5.43147">
        <ele>217.19999694824</ele>
        <time>2021-12-31T13:51:24Z</time>
      </trkpt>
      <trkpt lat="43.22078" lon="5.43149">
        <ele>218.60000610352</ele>
        <time>2021-12-31T13:51:45Z</time>
      </trkpt>
      <trkpt lat="43.22078" lon="5.43165">
        <ele>219.80000305176</ele>
        <time>2021-12-31T13:52:06Z</time>
      </trkpt>
      <trkpt lat="43.22084" lon="5.43175">
        <ele>218.39999389648</ele>
        <time>2021-12-31T13:52:24Z</time>
      </trkpt>
      <trkpt lat="43.22087" lon="5.4319">
        <ele>215.39999389648</ele>
        <time>2021-12-31T13:52:40Z</time>
      </trkpt>
      <trkpt lat="43.22087" lon="5.43202">
        <ele>214</ele>
        <time>2021-12-31T13:52:48Z</time>
      </trkpt>
      <trkpt lat="43.22075" lon="5.4322">
        <ele>213.60000610352</ele>
        <time>2021-12-31T13:53:09Z</time>
      </trkpt>
      <trkpt lat="43.22064" lon="5.43228">
        <ele>216.60000610352</ele>
        <time>2021-12-31T13:53:28Z</time>
      </trkpt>
      <trkpt lat="43.22051" lon="5.43239">
        <ele>217.19999694824</ele>
        <time>2021-12-31T13:53:48Z</time>
      </trkpt>
      <trkpt lat="43.22034" lon="5.43232">
        <ele>217.19999694824</ele>
        <time>2021-12-31T13:54:08Z</time>
      </trkpt>
      <trkpt lat="43.22024" lon="5.43238">
        <ele>220.39999389648</ele>
        <time>2021-12-31T13:54:30Z</time>
      </trkpt>
      <trkpt lat="43.22022" lon="5.43246">
        <ele>222.19999694824</ele>
        <time>2021-12-31T13:54:49Z</time>
      </trkpt>
      <trkpt lat="43.22028" lon="5.43254">
        <ele>225.19999694824</ele>
        <time>2021-12-31T13:55:07Z</time>
      </trkpt>
      <trkpt lat="43.22021" lon="5.43265">
        <ele>228</ele>
        <time>2021-12-31T13:55:28Z</time>
      </trkpt>
      <trkpt lat="43.2202" lon="5.43288">
        <ele>229</ele>
        <time>2021-12-31T13:55:50Z</time>
      </trkpt>
      <trkpt lat="43.2202" lon="5.43304">
        <ele>228.60000610352</ele>
        <time>2021-12-31T13:56:03Z</time>
      </trkpt>
      <trkpt lat="43.2203" lon="5.43326">
        <ele>229.39999389648</ele>
        <time>2021-12-31T13:56:27Z</time>
      </trkpt>
      <trkpt lat="43.22045" lon="5.43348">
        <ele>230.60000610352</ele>
        <time>2021-12-31T13:56:50Z</time>
      </trkpt>
      <trkpt lat="43.22048" lon="5.4337">
        <ele>233</ele>
        <time>2021-12-31T13:57:13Z</time>
      </trkpt>
      <trkpt lat="43.2204" lon="5.43387">
        <ele>235.80000305176</ele>
        <time>2021-12-31T13:57:37Z</time>
      </trkpt>
      <trkpt lat="43.22043" lon="5.43398">
        <ele>238.80000305176</ele>
        <time>2021-12-31T13:57:56Z</time>
      </trkpt>
      <trkpt lat="43.22045" lon="5.43404">
        <ele>242</ele>
        <time>2021-12-31T13:58:14Z</time>
      </trkpt>
      <trkpt lat="43.22045" lon="5.43414">
        <ele>245</ele>
        <time>2021-12-31T13:58:40Z</time>
      </trkpt>
      <trkpt lat="43.22046" lon="5.4343">
        <ele>248</ele>
        <time>2021-12-31T13:59:03Z</time>
      </trkpt>
      <trkpt lat="43.22047" lon="5.43431">
        <ele>248.39999389648</ele>
        <time>2021-12-31T13:59:06Z</time>
      </trkpt>
      <trkpt lat="43.22045" lon="5.4344">
        <ele>250.60000610352</ele>
        <time>2021-12-31T13:59:25Z</time>
      </trkpt>
      <trkpt lat="43.22041" lon="5.43447">
        <ele>252.19999694824</ele>
        <time>2021-12-31T13:59:42Z</time>
      </trkpt>
      <trkpt lat="43.2204" lon="5.43457">
        <ele>253.60000610352</ele>
        <time>2021-12-31T14:00:03Z</time>
      </trkpt>
      <trkpt lat="43.22038" lon="5.43461">
        <ele>256.39999389648</ele>
        <time>2021-12-31T14:00:26Z</time>
      </trkpt>
      <trkpt lat="43.22043" lon="5.43466">
        <ele>257</ele>
        <time>2021-12-31T14:00:49Z</time>
      </trkpt>
      <trkpt lat="43.22045" lon="5.43492">
        <ele>259.79998779297</ele>
        <time>2021-12-31T14:01:12Z</time>
      </trkpt>
      <trkpt lat="43.22043" lon="5.43512">
        <ele>260.79998779297</ele>
        <time>2021-12-31T14:01:30Z</time>
      </trkpt>
      <trkpt lat="43.22042" lon="5.43531">
        <ele>263</ele>
        <time>2021-12-31T14:01:48Z</time>
      </trkpt>
      <trkpt lat="43.2204" lon="5.43541">
        <ele>263</ele>
        <time>2021-12-31T14:02:04Z</time>
      </trkpt>
      <trkpt lat="43.22039" lon="5.43541">
        <ele>263.60000610352</ele>
        <time>2021-12-31T14:02:31Z</time>
      </trkpt>
      <trkpt lat="43.22039" lon="5.43542">
        <ele>264</ele>
        <time>2021-12-31T14:03:28Z</time>
      </trkpt>
      <trkpt lat="43.22041" lon="5.43545">
        <ele>264</ele>
        <time>2021-12-31T14:03:31Z</time>
      </trkpt>
      <trkpt lat="43.22043" lon="5.43556">
        <ele>263.60000610352</ele>
        <time>2021-12-31T14:03:45Z</time>
      </trkpt>
      <trkpt lat="43.22042" lon="5.43559">
        <ele>263.39999389648</ele>
        <time>2021-12-31T14:03:48Z</time>
      </trkpt>
      <trkpt lat="43.22032" lon="5.43578">
        <ele>261.39999389648</ele>
        <time>2021-12-31T14:04:05Z</time>
      </trkpt>
      <trkpt lat="43.22024" lon="5.43595">
        <ele>261</ele>
        <time>2021-12-31T14:04:19Z</time>
      </trkpt>
      <trkpt lat="43.22015" lon="5.43621">
        <ele>260.20001220703</ele>
        <time>2021-12-31T14:04:38Z</time>
      </trkpt>
      <trkpt lat="43.22006" lon="5.43648">
        <ele>259.60000610352</ele>
        <time>2021-12-31T14:04:57Z</time>
      </trkpt>
      <trkpt lat="43.22003" lon="5.43656">
        <ele>259.20001220703</ele>
        <time>2021-12-31T14:05:01Z</time>
      </trkpt>
      <trkpt lat="43.21994" lon="5.43684">
        <ele>257.39999389648</ele>
        <time>2021-12-31T14:05:18Z</time>
      </trkpt>
      <trkpt lat="43.2199" lon="5.4371">
        <ele>256.60000610352</ele>
        <time>2021-12-31T14:05:35Z</time>
      </trkpt>
      <trkpt lat="43.21982" lon="5.4373">
        <ele>255.39999389648</ele>
        <time>2021-12-31T14:05:49Z</time>
      </trkpt>
      <trkpt lat="43.21979" lon="5.4374">
        <ele>254.80000305176</ele>
        <time>2021-12-31T14:05:56Z</time>
      </trkpt>
      <trkpt lat="43.21972" lon="5.43756">
        <ele>252.80000305176</ele>
        <time>2021-12-31T14:06:09Z</time>
      </trkpt>
      <trkpt lat="43.21963" lon="5.43767">
        <ele>251.19999694824</ele>
        <time>2021-12-31T14:06:24Z</time>
      </trkpt>
      <trkpt lat="43.21956" lon="5.43776">
        <ele>249</ele>
        <time>2021-12-31T14:06:38Z</time>
      </trkpt>
      <trkpt lat="43.21947" lon="5.4379">
        <ele>247</ele>
        <time>2021-12-31T14:06:56Z</time>
      </trkpt>
      <trkpt lat="43.21938" lon="5.43805">
        <ele>244.60000610352</ele>
        <time>2021-12-31T14:07:13Z</time>
      </trkpt>
      <trkpt lat="43.21938" lon="5.43816">
        <ele>242.80000305176</ele>
        <time>2021-12-31T14:07:28Z</time>
      </trkpt>
      <trkpt lat="43.21942" lon="5.43835">
        <ele>239.80000305176</ele>
        <time>2021-12-31T14:07:47Z</time>
      </trkpt>
      <trkpt lat="43.21949" lon="5.43851">
        <ele>236.80000305176</ele>
        <time>2021-12-31T14:08:06Z</time>
      </trkpt>
      <trkpt lat="43.21955" lon="5.43861">
        <ele>233.60000610352</ele>
        <time>2021-12-31T14:08:21Z</time>
      </trkpt>
      <trkpt lat="43.21959" lon="5.43874">
        <ele>230.39999389648</ele>
        <time>2021-12-31T14:08:40Z</time>
      </trkpt>
      <trkpt lat="43.21972" lon="5.43889">
        <ele>227.39999389648</ele>
        <time>2021-12-31T14:09:02Z</time>
      </trkpt>
      <trkpt lat="43.21978" lon="5.4391">
        <ele>224.60000610352</ele>
        <time>2021-12-31T14:09:22Z</time>
      </trkpt>
      <trkpt lat="43.21981" lon="5.43923">
        <ele>222.60000610352</ele>
        <time>2021-12-31T14:09:39Z</time>
      </trkpt>
      <trkpt lat="43.2199" lon="5.43944">
        <ele>220.80000305176</ele>
        <time>2021-12-31T14:09:57Z</time>
      </trkpt>
      <trkpt lat="43.2199" lon="5.43957">
        <ele>218.80000305176</ele>
        <time>2021-12-31T14:10:17Z</time>
      </trkpt>
      <trkpt lat="43.21994" lon="5.43974">
        <ele>215.60000610352</ele>
        <time>2021-12-31T14:10:35Z</time>
      </trkpt>
      <trkpt lat="43.21999" lon="5.43996">
        <ele>212.80000305176</ele>
        <time>2021-12-31T14:10:56Z</time>
      </trkpt>
      <trkpt lat="43.22001" lon="5.44007">
        <ele>211.19999694824</ele>
        <time>2021-12-31T14:11:14Z</time>
      </trkpt>
      <trkpt lat="43.22002" lon="5.44016">
        <ele>210.39999389648</ele>
        <time>2021-12-31T14:11:45Z</time>
      </trkpt>
      <trkpt lat="43.22003" lon="5.44018">
        <ele>210.39999389648</ele>
        <time>2021-12-31T14:11:47Z</time>
      </trkpt>
      <trkpt lat="43.22007" lon="5.44034">
        <ele>208.80000305176</ele>
        <time>2021-12-31T14:12:03Z</time>
      </trkpt>
      <trkpt lat="43.22008" lon="5.44047">
        <ele>207.39999389648</ele>
        <time>2021-12-31T14:12:17Z</time>
      </trkpt>
      <trkpt lat="43.22006" lon="5.44054">
        <ele>206.19999694824</ele>
        <time>2021-12-31T14:12:33Z</time>
      </trkpt>
      <trkpt lat="43.22004" lon="5.44062">
        <ele>205.60000610352</ele>
        <time>2021-12-31T14:12:41Z</time>
      </trkpt>
      <trkpt lat="43.22006" lon="5.4408">
        <ele>203.80000305176</ele>
        <time>2021-12-31T14:12:55Z</time>
      </trkpt>
      <trkpt lat="43.22009" lon="5.44092">
        <ele>203.19999694824</ele>
        <time>2021-12-31T14:13:10Z</time>
      </trkpt>
      <trkpt lat="43.22021" lon="5.44098">
        <ele>204</ele>
        <time>2021-12-31T14:13:26Z</time>
      </trkpt>
      <trkpt lat="43.22039" lon="5.44102">
        <ele>204.19999694824</ele>
        <time>2021-12-31T14:13:45Z</time>
      </trkpt>
      <trkpt lat="43.22046" lon="5.44103">
        <ele>204</ele>
        <time>2021-12-31T14:13:51Z</time>
      </trkpt>
      <trkpt lat="43.22052" lon="5.44105">
        <ele>203.80000305176</ele>
        <time>2021-12-31T14:13:56Z</time>
      </trkpt>
      <trkpt lat="43.22061" lon="5.44109">
        <ele>202.80000305176</ele>
        <time>2021-12-31T14:14:12Z</time>
      </trkpt>
      <trkpt lat="43.22067" lon="5.44113">
        <ele>202.80000305176</ele>
        <time>2021-12-31T14:14:18Z</time>
      </trkpt>
      <trkpt lat="43.22078" lon="5.44106">
        <ele>202</ele>
        <time>2021-12-31T14:14:32Z</time>
      </trkpt>
      <trkpt lat="43.22091" lon="5.4409">
        <ele>200.80000305176</ele>
        <time>2021-12-31T14:14:51Z</time>
      </trkpt>
      <trkpt lat="43.22104" lon="5.44083">
        <ele>200</ele>
        <time>2021-12-31T14:15:01Z</time>
      </trkpt>
      <trkpt lat="43.22114" lon="5.44075">
        <ele>199.19999694824</ele>
        <time>2021-12-31T14:15:09Z</time>
      </trkpt>
      <trkpt lat="43.22117" lon="5.44073">
        <ele>199.19999694824</ele>
        <time>2021-12-31T14:15:12Z</time>
      </trkpt>
      <trkpt lat="43.22127" lon="5.4406">
        <ele>198.60000610352</ele>
        <time>2021-12-31T14:15:25Z</time>
      </trkpt>
      <trkpt lat="43.22132" lon="5.44054">
        <ele>198</ele>
        <time>2021-12-31T14:15:31Z</time>
      </trkpt>
      <trkpt lat="43.22135" lon="5.44051">
        <ele>198</ele>
        <time>2021-12-31T14:15:34Z</time>
      </trkpt>
      <trkpt lat="43.22145" lon="5.44038">
        <ele>196.80000305176</ele>
        <time>2021-12-31T14:15:46Z</time>
      </trkpt>
      <trkpt lat="43.22155" lon="5.44028">
        <ele>196</ele>
        <time>2021-12-31T14:15:55Z</time>
      </trkpt>
      <trkpt lat="43.22173" lon="5.44021">
        <ele>195.19999694824</ele>
        <time>2021-12-31T14:16:09Z</time>
      </trkpt>
      <trkpt lat="43.22203" lon="5.44008">
        <ele>193.60000610352</ele>
        <time>2021-12-31T14:16:34Z</time>
      </trkpt>
      <trkpt lat="43.22215" lon="5.44007">
        <ele>193</ele>
        <time>2021-12-31T14:16:48Z</time>
      </trkpt>
      <trkpt lat="43.2224" lon="5.43996">
        <ele>191.80000305176</ele>
        <time>2021-12-31T14:17:11Z</time>
      </trkpt>
      <trkpt lat="43.22258" lon="5.43994">
        <ele>191.39999389648</ele>
        <time>2021-12-31T14:17:28Z</time>
      </trkpt>
      <trkpt lat="43.22281" lon="5.43973">
        <ele>190.19999694824</ele>
        <time>2021-12-31T14:17:49Z</time>
      </trkpt>
      <trkpt lat="43.22305" lon="5.43952">
        <ele>189.39999389648</ele>
        <time>2021-12-31T14:18:13Z</time>
      </trkpt>
      <trkpt lat="43.22322" lon="5.43931">
        <ele>187.80000305176</ele>
        <time>2021-12-31T14:18:34Z</time>
      </trkpt>
      <trkpt lat="43.2234" lon="5.43903">
        <ele>186.80000305176</ele>
        <time>2021-12-31T14:18:57Z</time>
      </trkpt>
      <trkpt lat="43.22356" lon="5.43882">
        <ele>186.19999694824</ele>
        <time>2021-12-31T14:19:13Z</time>
      </trkpt>
      <trkpt lat="43.22365" lon="5.43876">
        <ele>185.80000305176</ele>
        <time>2021-12-31T14:19:22Z</time>
      </trkpt>
      <trkpt lat="43.22374" lon="5.4387">
        <ele>185</ele>
        <time>2021-12-31T14:19:31Z</time>
      </trkpt>
      <trkpt lat="43.22386" lon="5.43864">
        <ele>184.39999389648</ele>
        <time>2021-12-31T14:19:43Z</time>
      </trkpt>
      <trkpt lat="43.22401" lon="5.43851">
        <ele>183.80000305176</ele>
        <time>2021-12-31T14:19:57Z</time>
      </trkpt>
      <trkpt lat="43.22414" lon="5.43846">
        <ele>183.19999694824</ele>
        <time>2021-12-31T14:20:12Z</time>
      </trkpt>
      <trkpt lat="43.22437" lon="5.43831">
        <ele>182.60000610352</ele>
        <time>2021-12-31T14:20:33Z</time>
      </trkpt>
      <trkpt lat="43.22453" lon="5.43817">
        <ele>182.39999389648</ele>
        <time>2021-12-31T14:20:52Z</time>
      </trkpt>
      <trkpt lat="43.22479" lon="5.43815">
        <ele>182.80000305176</ele>
        <time>2021-12-31T14:21:17Z</time>
      </trkpt>
      <trkpt lat="43.22508" lon="5.43814">
        <ele>182.80000305176</ele>
        <time>2021-12-31T14:21:41Z</time>
      </trkpt>
      <trkpt lat="43.22529" lon="5.43813">
        <ele>183</ele>
        <time>2021-12-31T14:21:58Z</time>
      </trkpt>
      <trkpt lat="43.22552" lon="5.43814">
        <ele>183.39999389648</ele>
        <time>2021-12-31T14:22:21Z</time>
      </trkpt>
      <trkpt lat="43.22579" lon="5.43811">
        <ele>183.80000305176</ele>
        <time>2021-12-31T14:22:45Z</time>
      </trkpt>
      <trkpt lat="43.2261" lon="5.43804">
        <ele>184.60000610352</ele>
        <time>2021-12-31T14:23:09Z</time>
      </trkpt>
      <trkpt lat="43.2263" lon="5.43799">
        <ele>185</ele>
        <time>2021-12-31T14:23:28Z</time>
      </trkpt>
      <trkpt lat="43.22646" lon="5.43791">
        <ele>184.60000610352</ele>
        <time>2021-12-31T14:23:45Z</time>
      </trkpt>
      <trkpt lat="43.22666" lon="5.43776">
        <ele>184.19999694824</ele>
        <time>2021-12-31T14:24:03Z</time>
      </trkpt>
      <trkpt lat="43.22678" lon="5.43766">
        <ele>183.80000305176</ele>
        <time>2021-12-31T14:24:14Z</time>
      </trkpt>
      <trkpt lat="43.22692" lon="5.43752">
        <ele>183</ele>
        <time>2021-12-31T14:24:29Z</time>
      </trkpt>
      <trkpt lat="43.22703" lon="5.43743">
        <ele>182.39999389648</ele>
        <time>2021-12-31T14:24:41Z</time>
      </trkpt>
      <trkpt lat="43.2272" lon="5.43735">
        <ele>181.60000610352</ele>
        <time>2021-12-31T14:24:55Z</time>
      </trkpt>
      <trkpt lat="43.22734" lon="5.43732">
        <ele>181</ele>
        <time>2021-12-31T14:25:07Z</time>
      </trkpt>
      <trkpt lat="43.22748" lon="5.43727">
        <ele>180.19999694824</ele>
        <time>2021-12-31T14:25:19Z</time>
      </trkpt>
      <trkpt lat="43.22762" lon="5.43723">
        <ele>179.19999694824</ele>
        <time>2021-12-31T14:25:35Z</time>
      </trkpt>
      <trkpt lat="43.22767" lon="5.43724">
        <ele>179</ele>
        <time>2021-12-31T14:25:40Z</time>
      </trkpt>
      <trkpt lat="43.22772" lon="5.43725">
        <ele>178.80000305176</ele>
        <time>2021-12-31T14:25:44Z</time>
      </trkpt>
      <trkpt lat="43.22791" lon="5.43729">
        <ele>177.60000610352</ele>
        <time>2021-12-31T14:26:00Z</time>
      </trkpt>
      <trkpt lat="43.2281" lon="5.43729">
        <ele>176.39999389648</ele>
        <time>2021-12-31T14:26:16Z</time>
      </trkpt>
      <trkpt lat="43.22839" lon="5.43725">
        <ele>174.80000305176</ele>
        <time>2021-12-31T14:26:43Z</time>
      </trkpt>
      <trkpt lat="43.22868" lon="5.43722">
        <ele>172.60000610352</ele>
        <time>2021-12-31T14:27:11Z</time>
      </trkpt>
      <trkpt lat="43.22897" lon="5.43719">
        <ele>170.80000305176</ele>
        <time>2021-12-31T14:27:34Z</time>
      </trkpt>
      <trkpt lat="43.22919" lon="5.4372">
        <ele>169</ele>
        <time>2021-12-31T14:27:56Z</time>
      </trkpt>
      <trkpt lat="43.22939" lon="5.43714">
        <ele>168</ele>
        <time>2021-12-31T14:28:15Z</time>
      </trkpt>
      <trkpt lat="43.2296" lon="5.4371">
        <ele>166.39999389648</ele>
        <time>2021-12-31T14:28:37Z</time>
      </trkpt>
      <trkpt lat="43.22976" lon="5.43704">
        <ele>165.39999389648</ele>
        <time>2021-12-31T14:28:52Z</time>
      </trkpt>
      <trkpt lat="43.22998" lon="5.43694">
        <ele>164.19999694824</ele>
        <time>2021-12-31T14:29:07Z</time>
      </trkpt>
      <trkpt lat="43.23009" lon="5.43689">
        <ele>162.39999389648</ele>
        <time>2021-12-31T14:29:26Z</time>
      </trkpt>
      <trkpt lat="43.2303" lon="5.43685">
        <ele>161.19999694824</ele>
        <time>2021-12-31T14:29:41Z</time>
      </trkpt>
      <trkpt lat="43.23047" lon="5.43656">
        <ele>159.60000610352</ele>
        <time>2021-12-31T14:30:00Z</time>
      </trkpt>
      <trkpt lat="43.2305" lon="5.4365">
        <ele>159.19999694824</ele>
        <time>2021-12-31T14:30:07Z</time>
      </trkpt>
      <trkpt lat="43.23051" lon="5.43648">
        <ele>159.19999694824</ele>
        <time>2021-12-31T14:30:09Z</time>
      </trkpt>
      <trkpt lat="43.23056" lon="5.4364">
        <ele>158.80000305176</ele>
        <time>2021-12-31T14:30:20Z</time>
      </trkpt>
    </trkseg>
  </trk>
</gpx>